Time,TemperatureF,DewpointF,PressureIn,WindDirection,WindDirectionDegrees,WindSpeedMPH,WindSpeedGustMPH,Humidity,HourlyPrecipIn,Conditions,Clouds,dailyrainin,SoftwareType,DateUTC
2013-10-15 00:00:00,55.0,27.9,30.04,ENE,68,0.0,0.0,35,0.00,,CLR,0.00,VWS V14.01,2013-10-15 05:00:00,
2013-10-15 00:03:00,54.8,27.7,30.04,ENE,68,0.0,0.0,35,0.00,,CLR,0.00,VWS V14.01,2013-10-15 05:03:00,
2013-10-15 00:04:00,54.8,27.7,30.04,ENE,68,0.0,0.0,35,0.00,,CLR,0.00,VWS V14.01,2013-10-15 05:04:00,
2013-10-15 00:05:00,54.8,28.4,30.04,ENE,68,0.0,0.0,36,0.00,,CLR,0.00,VWS V14.01,2013-10-15 05:05:00,
2013-10-15 00:08:00,54.8,28.4,30.03,ENE,68,0.0,0.0,36,0.00,,CLR,0.00,VWS V14.01,2013-10-15 05:08:00,
2013-10-15 00:09:00,54.8,28.4,30.03,ENE,68,0.0,0.0,36,0.00,,CLR,0.00,VWS V14.01,2013-10-15 05:09:00,
2013-10-15 00:10:00,54.8,28.4,30.03,ENE,68,0.0,0.0,36,0.00,,CLR,0.00,VWS V14.01,2013-10-15 05:10:00,
2013-10-15 00:12:00,54.8,28.4,30.04,ENE,68,0.0,0.0,36,0.00,,CLR,0.00,VWS V14.01,2013-10-15 05:12:00,
2013-10-15 00:14:00,54.8,29.0,30.03,ENE,68,0.0,0.0,37,0.00,,CLR,0.00,VWS V14.01,2013-10-15 05:14:00,
2013-10-15 00:15:00,54.8,29.0,30.04,ENE,68,0.0,0.0,37,0.00,,CLR,0.00,VWS V14.01,2013-10-15 05:15:00,
2013-10-15 00:17:00,54.8,29.0,30.03,ENE,68,0.0,0.0,37,0.00,,CLR,0.00,VWS V14.01,2013-10-15 05:17:00,
2013-10-15 00:20:00,54.8,29.0,30.04,ENE,68,0.0,0.0,37,0.00,,CLR,0.00,VWS V14.01,2013-10-15 05:20:00,
2013-10-15 00:22:00,54.8,29.7,30.03,ENE,68,0.0,0.0,38,0.00,,CLR,0.00,VWS V14.01,2013-10-15 05:22:00,
2013-10-15 00:24:00,54.8,29.7,30.03,ENE,68,0.0,0.0,38,0.00,,CLR,0.00,VWS V14.01,2013-10-15 05:24:00,
2013-10-15 00:26:00,54.8,29.7,30.03,ENE,68,0.0,0.0,38,0.00,,CLR,0.00,VWS V14.01,2013-10-15 05:26:00,
2013-10-15 00:28:00,54.8,29.7,30.03,ENE,68,0.0,0.0,38,0.00,,CLR,0.00,VWS V14.01,2013-10-15 05:28:00,
2013-10-15 00:31:00,54.8,29.7,30.03,SE,135,0.0,28.0,38,0.00,,CLR,0.00,VWS V14.01,2013-10-15 05:31:00,
2013-10-15 00:32:00,54.8,29.7,30.03,SE,135,0.0,28.0,38,0.00,,CLR,0.00,VWS V14.01,2013-10-15 05:32:00,
2013-10-15 00:35:00,54.8,29.7,30.03,NNW,338,28.0,28.0,38,0.00,,CLR,0.00,VWS V14.01,2013-10-15 05:35:00,
2013-10-15 00:36:00,55.0,29.9,30.03,SE,135,0.0,28.0,38,0.00,,CLR,0.00,VWS V14.01,2013-10-15 05:36:00,
2013-10-15 00:37:00,54.8,29.7,30.03,SE,135,0.0,0.0,38,0.00,,CLR,0.00,VWS V14.01,2013-10-15 05:37:00,
2013-10-15 00:38:00,54.8,29.7,30.03,SE,135,0.0,0.0,38,0.00,,CLR,0.00,VWS V14.01,2013-10-15 05:38:00,
2013-10-15 00:42:00,55.0,29.9,30.02,SE,135,0.0,0.0,38,0.00,,CLR,0.00,VWS V14.01,2013-10-15 05:42:00,
2013-10-15 00:43:00,54.8,29.7,30.02,SE,135,0.0,0.0,38,0.00,,CLR,0.00,VWS V14.01,2013-10-15 05:43:00,
2013-10-15 00:47:00,55.0,30.5,30.02,ESE,112,0.0,0.0,39,0.00,,CLR,0.00,VWS V14.01,2013-10-15 05:47:00,
2013-10-15 00:48:00,55.0,30.5,30.02,East,90,0.0,0.0,39,0.00,,CLR,0.00,VWS V14.01,2013-10-15 05:48:00,
2013-10-15 00:53:00,55.0,30.5,30.02,ENE,68,0.0,0.0,39,0.00,,CLR,0.00,VWS V14.01,2013-10-15 05:53:00,
2013-10-15 00:54:00,54.8,30.3,30.02,ENE,68,0.0,0.0,39,0.00,,CLR,0.00,VWS V14.01,2013-10-15 05:54:00,
2013-10-15 00:55:00,55.0,30.5,30.02,ENE,68,0.0,0.0,39,0.00,,CLR,0.00,VWS V14.01,2013-10-15 05:55:00,
2013-10-15 00:56:00,55.0,30.5,30.02,ENE,68,0.0,0.0,39,0.00,,CLR,0.00,VWS V14.01,2013-10-15 05:56:00,
2013-10-15 00:57:00,55.0,30.5,30.02,ENE,68,0.0,0.0,39,0.00,,CLR,0.00,VWS V14.01,2013-10-15 05:57:00,
2013-10-15 00:59:00,55.0,30.5,30.02,ENE,68,0.0,0.0,39,0.00,,CLR,0.00,VWS V14.01,2013-10-15 05:59:00,
2013-10-15 01:01:00,55.0,30.5,30.02,ENE,68,0.0,0.0,39,0.00,,CLR,0.00,VWS V14.01,2013-10-15 06:01:00,
2013-10-15 01:02:00,55.0,30.5,30.02,NNW,338,28.0,28.0,39,0.00,,CLR,0.00,VWS V14.01,2013-10-15 06:02:00,
2013-10-15 01:05:00,55.0,31.1,30.02,NNW,338,28.0,28.0,40,0.00,,CLR,0.00,VWS V14.01,2013-10-15 06:05:00,
2013-10-15 01:06:00,55.0,31.1,30.02,ENE,68,0.0,0.0,40,0.00,,CLR,0.00,VWS V14.01,2013-10-15 06:06:00,
2013-10-15 01:08:00,55.2,31.3,30.02,ENE,68,0.0,0.0,40,0.00,,CLR,0.00,VWS V14.01,2013-10-15 06:08:00,
2013-10-15 01:11:00,55.0,31.8,30.02,ENE,68,0.0,0.0,41,0.00,,CLR,0.00,VWS V14.01,2013-10-15 06:11:00,
2013-10-15 01:13:00,55.0,31.8,30.01,ENE,68,0.0,0.0,41,0.00,,CLR,0.00,VWS V14.01,2013-10-15 06:13:00,
2013-10-15 01:14:00,55.0,31.8,30.01,ENE,68,4.4,4.4,41,0.00,,CLR,0.00,VWS V14.01,2013-10-15 06:14:00,
2013-10-15 01:15:00,55.0,31.8,30.01,ENE,68,0.0,4.4,41,0.00,,CLR,0.00,VWS V14.01,2013-10-15 06:15:00,
2013-10-15 01:16:00,55.2,31.9,30.01,ENE,68,0.0,0.0,41,0.00,,CLR,0.00,VWS V14.01,2013-10-15 06:16:00,
2013-10-15 01:18:00,55.0,31.8,30.01,ENE,68,0.0,0.0,41,0.00,,CLR,0.00,VWS V14.01,2013-10-15 06:18:00,
2013-10-15 01:19:00,55.0,31.8,30.01,ENE,68,0.0,0.0,41,0.00,,CLR,0.00,VWS V14.01,2013-10-15 06:19:00,
2013-10-15 01:20:00,55.0,31.8,30.01,ENE,68,0.0,0.0,41,0.00,,CLR,0.00,VWS V14.01,2013-10-15 06:20:00,
2013-10-15 01:21:00,55.0,31.8,30.01,ENE,68,3.0,3.0,41,0.00,,CLR,0.00,VWS V14.01,2013-10-15 06:21:00,
2013-10-15 01:22:00,55.0,32.3,30.01,NNW,338,28.0,28.0,42,0.00,,CLR,0.00,VWS V14.01,2013-10-15 06:22:00,
2013-10-15 01:25:00,55.2,32.5,30.01,ENE,68,0.0,0.0,42,0.00,,CLR,0.00,VWS V14.01,2013-10-15 06:25:00,
2013-10-15 01:26:00,55.0,32.3,30.01,ENE,68,3.4,3.4,42,0.00,,CLR,0.00,VWS V14.01,2013-10-15 06:26:00,
2013-10-15 01:27:00,55.0,32.3,30.01,ENE,68,0.0,3.4,42,0.00,,CLR,0.00,VWS V14.01,2013-10-15 06:27:00,
2013-10-15 01:28:00,55.0,32.3,30.01,ENE,68,0.0,3.4,42,0.00,,CLR,0.00,VWS V14.01,2013-10-15 06:28:00,
2013-10-15 01:31:00,55.2,32.5,30.00,ENE,68,0.0,0.0,42,0.00,,CLR,0.00,VWS V14.01,2013-10-15 06:31:00,
2013-10-15 01:32:00,55.2,32.5,30.00,ENE,68,2.6,2.6,42,0.00,,CLR,0.00,VWS V14.01,2013-10-15 06:32:00,
2013-10-15 01:33:00,55.4,33.3,30.00,ENE,68,0.0,2.6,43,0.00,,CLR,0.00,VWS V14.01,2013-10-15 06:33:00,
2013-10-15 01:34:00,55.4,33.3,30.00,ENE,68,0.0,2.6,43,0.00,,CLR,0.00,VWS V14.01,2013-10-15 06:34:00,
2013-10-15 01:35:00,55.2,33.1,30.00,ENE,68,0.0,0.0,43,0.00,,CLR,0.00,VWS V14.01,2013-10-15 06:35:00,
2013-10-15 01:39:00,55.2,33.1,30.00,ENE,68,0.0,0.0,43,0.00,,BKN045,0.00,VWS V14.01,2013-10-15 06:39:00,
2013-10-15 01:40:00,55.4,33.3,30.00,ENE,68,0.0,0.0,43,0.00,,BKN045,0.00,VWS V14.01,2013-10-15 06:40:00,
2013-10-15 01:41:00,55.4,33.3,30.00,ENE,68,0.0,0.0,43,0.00,,BKN045,0.00,VWS V14.01,2013-10-15 06:41:00,
2013-10-15 01:42:00,55.4,33.3,29.99,ENE,68,0.0,0.0,43,0.00,,BKN045,0.00,VWS V14.01,2013-10-15 06:42:00,
2013-10-15 01:43:00,55.4,33.3,29.99,ENE,68,0.0,0.0,43,0.00,,BKN045,0.00,VWS V14.01,2013-10-15 06:43:00,
2013-10-15 01:46:00,55.4,33.3,29.99,ENE,68,0.0,0.0,43,0.00,,BKN045,0.00,VWS V14.01,2013-10-15 06:46:00,
2013-10-15 01:47:00,55.5,33.4,29.99,SE,135,0.0,0.0,43,0.00,,BKN045,0.00,VWS V14.01,2013-10-15 06:47:00,
2013-10-15 01:50:00,55.5,33.4,29.99,SE,135,0.0,28.0,43,0.00,,BKN045,0.00,VWS V14.01,2013-10-15 06:50:00,
2013-10-15 01:52:00,55.5,33.4,29.98,East,90,0.0,0.0,43,0.00,,BKN045,0.00,VWS V14.01,2013-10-15 06:52:00,
2013-10-15 01:54:00,55.5,33.4,29.99,East,90,0.0,0.0,43,0.00,,BKN045,0.00,VWS V14.01,2013-10-15 06:54:00,
2013-10-15 01:56:00,55.5,33.4,29.98,ESE,112,0.0,0.0,43,0.00,,BKN045,0.00,VWS V14.01,2013-10-15 06:56:00,
2013-10-15 01:58:00,55.7,34.1,29.98,SSE,158,1.6,1.6,44,0.00,,BKN045,0.00,VWS V14.01,2013-10-15 06:58:00,
2013-10-15 02:01:00,55.7,34.1,29.99,SSE,158,0.0,0.0,44,0.00,,BKN045,0.00,VWS V14.01,2013-10-15 07:01:00,
2013-10-15 02:02:00,55.9,34.3,29.99,SSE,158,0.0,0.0,44,0.00,,BKN045,0.00,VWS V14.01,2013-10-15 07:02:00,
2013-10-15 02:05:00,56.1,34.5,29.99,SE,135,0.4,0.4,44,0.00,,BKN045,0.00,VWS V14.01,2013-10-15 07:05:00,
2013-10-15 02:06:00,56.1,34.5,29.98,SSE,158,1.6,1.6,44,0.00,,BKN045,0.00,VWS V14.01,2013-10-15 07:06:00,
2013-10-15 02:07:00,56.3,34.7,29.98,SE,135,3.0,3.0,44,0.00,,BKN045,0.00,VWS V14.01,2013-10-15 07:07:00,
2013-10-15 02:08:00,56.3,34.1,29.98,SE,135,0.0,3.0,43,0.00,,BKN045,0.00,VWS V14.01,2013-10-15 07:08:00,
2013-10-15 02:11:00,56.4,34.2,29.98,South,180,0.0,0.0,43,0.00,,BKN045,0.00,VWS V14.01,2013-10-15 07:11:00,
2013-10-15 02:13:00,56.6,34.4,29.98,South,180,0.0,0.0,43,0.00,,BKN045,0.00,VWS V14.01,2013-10-15 07:13:00,
2013-10-15 02:14:00,56.8,34.6,29.98,NNW,338,28.0,28.0,43,0.00,,BKN045,0.00,VWS V14.01,2013-10-15 07:14:00,
2013-10-15 02:15:00,56.8,34.6,29.98,SSE,158,3.4,3.4,43,0.00,,BKN045,0.00,VWS V14.01,2013-10-15 07:15:00,
2013-10-15 02:16:00,56.6,34.4,29.98,South,180,2.2,3.4,43,0.00,,BKN045,0.00,VWS V14.01,2013-10-15 07:16:00,
2013-10-15 02:17:00,56.8,34.6,29.98,South,180,0.0,0.0,43,0.00,,BKN045,0.00,VWS V14.01,2013-10-15 07:17:00,
2013-10-15 02:20:00,57.0,35.3,29.98,SSE,158,0.0,2.6,44,0.00,,BKN045,0.00,VWS V14.01,2013-10-15 07:20:00,
2013-10-15 02:21:00,57.0,35.3,29.98,South,180,6.2,6.2,44,0.00,,BKN045,0.00,VWS V14.01,2013-10-15 07:21:00,
2013-10-15 02:23:00,57.3,35.6,29.98,SSE,158,0.0,0.0,44,0.00,,BKN045,0.00,VWS V14.01,2013-10-15 07:23:00,
2013-10-15 02:24:00,57.3,35.6,29.97,South,180,6.2,6.2,44,0.00,,BKN045,0.00,VWS V14.01,2013-10-15 07:24:00,
2013-10-15 02:25:00,57.3,35.6,29.97,South,180,6.2,6.2,44,0.00,,BKN045,0.00,VWS V14.01,2013-10-15 07:25:00,
2013-10-15 02:26:00,57.5,35.8,29.97,SSE,158,7.6,7.6,44,0.00,,BKN045,0.00,VWS V14.01,2013-10-15 07:26:00,
2013-10-15 02:29:00,57.5,35.8,29.97,South,180,0.0,0.0,44,0.00,,BKN045,0.00,VWS V14.01,2013-10-15 07:29:00,
2013-10-15 02:30:00,57.5,35.8,29.97,South,180,7.6,7.6,44,0.00,,BKN045,0.00,VWS V14.01,2013-10-15 07:30:00,
2013-10-15 02:31:00,57.5,35.8,29.97,ESE,112,0.0,0.0,44,0.00,,BKN045,0.00,VWS V14.01,2013-10-15 07:31:00,
2013-10-15 02:33:00,57.7,36.0,29.97,South,180,4.0,4.0,44,0.00,,BKN045,0.00,VWS V14.01,2013-10-15 07:33:00,
2013-10-15 02:34:00,57.9,36.1,29.97,South,180,0.0,4.0,44,0.00,,BKN045,0.00,VWS V14.01,2013-10-15 07:34:00,
2013-10-15 02:36:00,57.9,36.1,29.97,ESE,112,0.0,0.0,44,0.00,,BKN045,0.00,VWS V14.01,2013-10-15 07:36:00,
2013-10-15 02:37:00,57.9,36.1,29.97,ESE,112,0.0,0.0,44,0.00,,BKN045,0.00,VWS V14.01,2013-10-15 07:37:00,
2013-10-15 02:38:00,57.9,36.1,29.97,SSE,158,0.0,0.0,44,0.00,,BKN045,0.00,VWS V14.01,2013-10-15 07:38:00,
2013-10-15 02:41:00,57.9,36.1,29.97,NNW,338,28.0,28.0,44,0.00,,OVC100,0.00,VWS V14.01,2013-10-15 07:41:00,
2013-10-15 02:42:00,58.1,36.3,29.97,South,180,0.0,28.0,44,0.00,,OVC100,0.00,VWS V14.01,2013-10-15 07:42:00,
2013-10-15 02:43:00,58.1,35.7,29.97,SE,135,4.4,4.4,43,0.00,,OVC100,0.00,VWS V14.01,2013-10-15 07:43:00,
2013-10-15 02:45:00,58.1,36.3,29.97,NNW,338,28.0,28.0,44,0.00,,OVC100,0.00,VWS V14.01,2013-10-15 07:45:00,
2013-10-15 02:46:00,58.1,36.9,29.97,South,180,2.2,28.0,45,0.00,,OVC100,0.06,VWS V14.01,2013-10-15 07:46:00,
2013-10-15 02:48:00,57.9,36.7,29.97,SSE,158,0.0,2.2,45,0.00,,OVC100,0.00,VWS V14.01,2013-10-15 07:48:00,
2013-10-15 02:51:00,57.7,37.1,29.97,South,180,0.0,0.0,46,0.00,,OVC100,0.00,VWS V14.01,2013-10-15 07:51:00,
2013-10-15 02:52:00,57.9,37.3,29.97,South,180,7.0,7.0,46,0.00,,OVC100,0.00,VWS V14.01,2013-10-15 07:52:00,
2013-10-15 02:53:00,57.9,37.8,29.97,South,180,2.6,7.0,47,0.00,,OVC100,0.00,VWS V14.01,2013-10-15 07:53:00,
2013-10-15 02:54:00,57.9,37.8,29.97,SE,135,0.0,7.0,47,0.00,,OVC100,0.00,VWS V14.01,2013-10-15 07:54:00,
2013-10-15 02:57:00,57.9,37.8,29.97,South,180,4.8,4.8,47,0.00,,OVC100,0.00,VWS V14.01,2013-10-15 07:57:00,
2013-10-15 02:58:00,57.9,37.8,29.96,South,180,0.0,4.8,47,0.00,,OVC100,0.00,VWS V14.01,2013-10-15 07:58:00,
2013-10-15 02:59:00,57.9,37.8,29.96,SSE,158,0.0,0.0,47,0.00,,OVC100,0.00,VWS V14.01,2013-10-15 07:59:00,
2013-10-15 03:00:00,57.9,37.8,29.96,SSE,158,0.0,0.0,47,0.00,,OVC100,0.00,VWS V14.01,2013-10-15 08:00:00,
2013-10-15 03:02:00,57.9,37.8,29.96,South,180,0.0,0.0,47,0.00,,OVC100,0.00,VWS V14.01,2013-10-15 08:02:00,
2013-10-15 03:03:00,57.9,37.8,29.96,SSE,158,0.0,0.0,47,0.00,,OVC100,0.00,VWS V14.01,2013-10-15 08:03:00,
2013-10-15 03:06:00,57.9,38.3,29.96,NNW,338,28.0,28.0,48,0.00,,OVC100,0.00,VWS V14.01,2013-10-15 08:06:00,
2013-10-15 03:07:00,57.9,38.3,29.96,South,180,3.4,28.0,48,0.00,,OVC100,0.00,VWS V14.01,2013-10-15 08:07:00,
2013-10-15 03:08:00,57.9,38.3,29.96,South,180,2.6,2.6,48,0.00,,OVC100,0.00,VWS V14.01,2013-10-15 08:08:00,
2013-10-15 03:09:00,57.9,38.3,29.96,South,180,0.0,2.6,48,0.00,,OVC100,0.00,VWS V14.01,2013-10-15 08:09:00,
2013-10-15 03:14:00,57.9,38.9,29.96,NNW,338,28.0,28.0,49,0.00,,OVC100,0.00,VWS V14.01,2013-10-15 08:14:00,
2013-10-15 03:16:00,57.9,38.9,29.95,South,180,0.0,28.0,49,0.00,,OVC100,0.00,VWS V14.01,2013-10-15 08:16:00,
2013-10-15 03:17:00,57.7,38.7,29.95,South,180,0.0,0.0,49,0.00,,OVC100,0.00,VWS V14.01,2013-10-15 08:17:00,
2013-10-15 03:18:00,57.7,38.7,29.95,South,180,0.0,0.0,49,0.00,,OVC100,0.00,VWS V14.01,2013-10-15 08:18:00,
2013-10-15 03:22:00,57.5,39.0,29.95,SSE,158,0.0,2.6,50,0.00,,OVC100,0.00,VWS V14.01,2013-10-15 08:22:00,
2013-10-15 03:24:00,57.5,39.0,29.94,South,180,2.6,2.6,50,0.00,,OVC100,0.00,VWS V14.01,2013-10-15 08:24:00,
2013-10-15 03:26:00,57.5,39.5,29.94,South,180,4.4,4.4,51,0.00,,OVC100,0.00,VWS V14.01,2013-10-15 08:26:00,
2013-10-15 03:27:00,57.3,39.3,29.94,East,90,3.4,4.4,51,0.00,,OVC100,0.00,VWS V14.01,2013-10-15 08:27:00,
2013-10-15 03:28:00,57.5,39.5,29.95,SE,135,0.0,4.4,51,0.00,,OVC100,0.00,VWS V14.01,2013-10-15 08:28:00,
2013-10-15 03:31:00,57.3,39.3,29.94,SE,135,0.0,0.0,51,0.00,,OVC100,0.00,VWS V14.01,2013-10-15 08:31:00,
2013-10-15 03:32:00,57.3,39.3,29.94,SE,135,0.0,0.0,51,0.00,,OVC100,0.00,VWS V14.01,2013-10-15 08:32:00,
2013-10-15 03:33:00,57.3,39.3,29.94,South,180,6.2,6.2,51,0.00,,OVC100,0.00,VWS V14.01,2013-10-15 08:33:00,
2013-10-15 03:34:00,57.5,39.5,29.94,SW,225,0.0,0.0,51,0.00,,OVC100,0.00,VWS V14.01,2013-10-15 08:34:00,
2013-10-15 03:38:00,57.5,40.0,29.94,ESE,112,3.4,3.4,52,0.00,,OVC100,0.00,VWS V14.01,2013-10-15 08:38:00,
2013-10-15 03:39:00,57.5,40.0,29.94,ESE,112,0.0,3.4,52,0.00,,OVC100,0.00,VWS V14.01,2013-10-15 08:39:00,
2013-10-15 03:40:00,57.5,40.0,29.94,South,180,0.0,3.4,52,0.00,,OVC095,0.00,VWS V14.01,2013-10-15 08:40:00,
2013-10-15 03:43:00,57.5,40.0,29.94,ESE,112,4.4,4.8,52,0.00,,OVC095,0.00,VWS V14.01,2013-10-15 08:43:00,
2013-10-15 03:44:00,57.5,40.0,29.94,NNW,338,28.0,28.0,52,0.00,,OVC095,0.00,VWS V14.01,2013-10-15 08:44:00,
2013-10-15 03:45:00,57.5,40.0,29.94,SSW,202,0.0,28.0,52,0.00,,OVC095,0.00,VWS V14.01,2013-10-15 08:45:00,
2013-10-15 03:46:00,57.5,40.0,29.94,SSW,202,0.0,28.0,52,0.00,,OVC095,0.00,VWS V14.01,2013-10-15 08:46:00,
2013-10-15 03:48:00,57.5,40.0,29.94,SSW,202,4.8,4.8,52,0.00,,OVC095,0.00,VWS V14.01,2013-10-15 08:48:00,
2013-10-15 03:50:00,57.5,40.0,29.94,South,180,0.0,0.0,52,0.00,,OVC095,0.00,VWS V14.01,2013-10-15 08:50:00,
2013-10-15 03:51:00,57.5,40.0,29.94,South,180,0.0,0.0,52,0.00,,OVC095,0.00,VWS V14.01,2013-10-15 08:51:00,
2013-10-15 03:52:00,57.5,40.0,29.93,South,180,0.0,0.0,52,0.00,,OVC095,0.00,VWS V14.01,2013-10-15 08:52:00,
2013-10-15 03:53:00,57.7,40.2,29.93,South,180,0.0,0.0,52,0.00,,OVC095,0.00,VWS V14.01,2013-10-15 08:53:00,
2013-10-15 03:54:00,57.5,40.0,29.94,South,180,2.6,2.6,52,0.00,,OVC095,0.00,VWS V14.01,2013-10-15 08:54:00,
2013-10-15 03:56:00,57.5,40.0,29.93,South,180,0.0,0.0,52,0.00,,OVC095,0.00,VWS V14.01,2013-10-15 08:56:00,
2013-10-15 03:58:00,57.7,40.2,29.94,South,180,0.0,0.0,52,0.00,,OVC095,0.00,VWS V14.01,2013-10-15 08:58:00,
2013-10-15 04:00:00,57.7,40.2,29.94,SSE,158,0.0,0.0,52,0.00,,OVC095,0.00,VWS V14.01,2013-10-15 09:00:00,
2013-10-15 04:02:00,57.7,40.2,29.93,South,180,3.4,3.4,52,0.00,,OVC095,0.00,VWS V14.01,2013-10-15 09:02:00,
2013-10-15 04:03:00,57.9,40.4,29.93,SSE,158,0.0,3.4,52,0.00,,OVC095,0.00,VWS V14.01,2013-10-15 09:03:00,
2013-10-15 04:06:00,57.7,40.7,29.93,SSE,158,0.0,28.0,53,0.00,,OVC095,0.00,VWS V14.01,2013-10-15 09:06:00,
2013-10-15 04:07:00,57.7,40.7,29.93,SSW,202,5.2,5.2,53,0.00,,OVC095,0.00,VWS V14.01,2013-10-15 09:07:00,
2013-10-15 04:08:00,57.9,40.9,29.93,South,180,3.4,5.2,53,0.00,,OVC095,0.00,VWS V14.01,2013-10-15 09:08:00,
2013-10-15 04:10:00,57.7,40.7,29.93,SSE,158,0.0,3.4,53,0.00,,OVC095,0.00,VWS V14.01,2013-10-15 09:10:00,
2013-10-15 04:12:00,57.7,41.2,29.93,SSE,158,0.0,0.0,54,0.00,,OVC095,0.00,VWS V14.01,2013-10-15 09:12:00,
2013-10-15 04:13:00,57.7,41.2,29.93,SSE,158,0.0,0.0,54,0.00,,OVC095,0.00,VWS V14.01,2013-10-15 09:13:00,
2013-10-15 04:14:00,57.5,41.0,29.93,SSE,158,0.0,0.0,54,0.00,,OVC095,0.00,VWS V14.01,2013-10-15 09:14:00,
2013-10-15 04:17:00,57.5,41.5,29.93,SSE,158,0.0,0.0,55,0.00,,OVC095,0.00,VWS V14.01,2013-10-15 09:17:00,
2013-10-15 04:18:00,57.5,41.5,29.93,South,180,0.0,0.0,55,0.00,,OVC095,0.00,VWS V14.01,2013-10-15 09:18:00,
2013-10-15 04:19:00,57.5,41.5,29.93,SSE,158,0.0,0.0,55,0.00,,OVC095,0.00,VWS V14.01,2013-10-15 09:19:00,
2013-10-15 04:20:00,57.5,41.9,29.93,NNW,338,28.0,28.0,56,0.00,,OVC095,0.00,VWS V14.01,2013-10-15 09:20:00,
2013-10-15 04:21:00,57.5,41.9,29.93,SSE,158,2.6,28.0,56,0.00,,OVC095,0.00,VWS V14.01,2013-10-15 09:21:00,
2013-10-15 04:22:00,57.3,41.8,29.93,South,180,6.2,6.2,56,0.00,,OVC095,0.00,VWS V14.01,2013-10-15 09:22:00,
2013-10-15 04:24:00,57.2,42.1,29.93,South,180,2.6,2.6,57,0.00,,OVC095,0.00,VWS V14.01,2013-10-15 09:24:00,
2013-10-15 04:25:00,57.2,42.1,29.93,South,180,3.4,3.4,57,0.00,,OVC095,0.00,VWS V14.01,2013-10-15 09:25:00,
2013-10-15 04:28:00,57.0,42.4,29.93,South,180,2.6,9.2,58,0.00,,OVC095,0.00,VWS V14.01,2013-10-15 09:28:00,
2013-10-15 04:29:00,57.2,42.6,29.93,South,180,3.0,3.0,58,0.00,,OVC095,0.00,VWS V14.01,2013-10-15 09:29:00,
2013-10-15 04:33:00,57.0,42.8,29.92,South,180,3.4,3.4,59,0.00,,OVC095,0.00,VWS V14.01,2013-10-15 09:33:00,
2013-10-15 04:34:00,57.0,42.8,29.93,South,180,0.0,3.4,59,0.00,,OVC095,0.00,VWS V14.01,2013-10-15 09:34:00,
2013-10-15 04:35:00,57.0,42.8,29.92,South,180,0.0,0.0,59,0.00,,OVC095,0.00,VWS V14.01,2013-10-15 09:35:00,
2013-10-15 04:38:00,57.2,43.5,29.92,South,180,3.4,3.4,60,0.00,,OVC095,0.00,VWS V14.01,2013-10-15 09:38:00,
2013-10-15 04:39:00,57.0,43.3,29.92,South,180,0.0,3.4,60,0.00,,OVC095,0.00,VWS V14.01,2013-10-15 09:39:00,
2013-10-15 04:40:00,57.2,43.5,29.92,South,180,2.6,3.4,60,0.00,,OVC090,0.00,VWS V14.01,2013-10-15 09:40:00,
2013-10-15 04:45:00,57.2,43.5,29.92,South,180,3.4,3.4,60,0.00,,OVC090,0.00,VWS V14.01,2013-10-15 09:45:00,
2013-10-15 04:46:00,57.3,43.5,29.92,South,180,0.0,3.4,60,0.00,,OVC090,0.00,VWS V14.01,2013-10-15 09:46:00,
2013-10-15 04:47:00,57.3,43.5,29.92,SSW,202,0.0,0.0,60,0.00,,OVC090,0.00,VWS V14.01,2013-10-15 09:47:00,
2013-10-15 04:50:00,57.3,43.5,29.92,SSW,202,0.0,0.0,60,0.00,,OVC090,0.00,VWS V14.01,2013-10-15 09:50:00,
2013-10-15 04:51:00,57.3,44.0,29.92,NNW,338,28.0,28.0,61,0.00,,OVC090,0.00,VWS V14.01,2013-10-15 09:51:00,
2013-10-15 04:53:00,57.3,44.0,29.93,SSE,158,0.0,0.0,61,0.00,,OVC090,0.00,VWS V14.01,2013-10-15 09:53:00,
2013-10-15 04:54:00,57.3,44.0,29.93,SSE,158,1.2,1.2,61,0.00,,OVC090,0.00,VWS V14.01,2013-10-15 09:54:00,
2013-10-15 04:56:00,57.5,44.2,29.92,SSE,158,0.0,1.2,61,0.00,,OVC090,0.00,VWS V14.01,2013-10-15 09:56:00,
2013-10-15 04:57:00,57.5,44.2,29.92,SSE,158,0.0,0.0,61,0.00,,OVC090,0.00,VWS V14.01,2013-10-15 09:57:00,
2013-10-15 04:58:00,57.5,44.2,29.92,SSE,158,0.0,0.0,61,0.00,,OVC090,0.00,VWS V14.01,2013-10-15 09:58:00,
2013-10-15 05:00:00,57.5,44.2,29.92,South,180,0.0,0.0,61,0.00,,OVC090,0.00,VWS V14.01,2013-10-15 10:00:00,
2013-10-15 05:01:00,57.5,44.2,29.92,SSE,158,0.0,0.0,61,0.00,,OVC090,0.00,VWS V14.01,2013-10-15 10:01:00,
2013-10-15 05:02:00,57.5,44.2,29.92,SSE,158,0.0,0.0,61,0.00,,OVC090,0.00,VWS V14.01,2013-10-15 10:02:00,
2013-10-15 05:05:00,57.5,44.2,29.92,SE,135,0.0,4.4,61,0.00,,OVC090,0.00,VWS V14.01,2013-10-15 10:05:00,
2013-10-15 05:06:00,57.5,44.6,29.92,SE,135,0.0,0.0,62,0.00,,OVC090,0.00,VWS V14.01,2013-10-15 10:06:00,
2013-10-15 05:07:00,57.5,44.6,29.92,SE,135,0.0,0.0,62,0.00,,OVC090,0.00,VWS V14.01,2013-10-15 10:07:00,
2013-10-15 05:08:00,57.5,44.6,29.91,SE,135,0.0,0.0,62,0.00,,OVC090,0.00,VWS V14.01,2013-10-15 10:08:00,
2013-10-15 05:09:00,57.5,44.6,29.91,NNW,338,28.0,28.0,62,0.00,,OVC090,0.00,VWS V14.01,2013-10-15 10:09:00,
2013-10-15 05:11:00,57.7,44.8,29.91,South,180,1.6,1.6,62,0.00,,OVC090,0.00,VWS V14.01,2013-10-15 10:11:00,
2013-10-15 05:12:00,57.5,44.6,29.91,South,180,3.4,3.4,62,0.00,,OVC090,0.00,VWS V14.01,2013-10-15 10:12:00,
2013-10-15 05:13:00,57.5,44.6,29.91,South,180,0.0,3.4,62,0.00,,OVC090,0.00,VWS V14.01,2013-10-15 10:13:00,
2013-10-15 05:14:00,57.5,44.6,29.91,South,180,0.0,0.0,62,0.00,,OVC090,0.00,VWS V14.01,2013-10-15 10:14:00,
2013-10-15 05:15:00,57.5,44.6,29.91,South,180,0.0,0.0,62,0.00,,OVC090,0.00,VWS V14.01,2013-10-15 10:15:00,
2013-10-15 05:16:00,57.7,44.8,29.91,ESE,112,4.8,4.8,62,0.00,,OVC090,0.00,VWS V14.01,2013-10-15 10:16:00,
2013-10-15 05:20:00,57.7,45.2,29.91,South,180,5.2,5.2,63,0.00,,OVC090,0.00,VWS V14.01,2013-10-15 10:20:00,
2013-10-15 05:21:00,57.7,45.2,29.91,NNW,338,28.0,28.0,63,0.00,,OVC090,0.00,VWS V14.01,2013-10-15 10:21:00,
2013-10-15 05:22:00,57.7,45.2,29.91,SSE,158,0.0,28.0,63,0.00,,OVC090,0.00,VWS V14.01,2013-10-15 10:22:00,
2013-10-15 05:23:00,57.7,45.2,29.91,South,180,2.2,2.2,63,0.00,,OVC090,0.00,VWS V14.01,2013-10-15 10:23:00,
2013-10-15 05:26:00,57.7,45.2,29.91,SSW,202,10.2,10.2,63,0.00,,OVC090,0.00,VWS V14.01,2013-10-15 10:26:00,
2013-10-15 05:28:00,57.7,45.2,29.91,South,180,0.0,10.2,63,0.00,,OVC090,0.00,VWS V14.01,2013-10-15 10:28:00,
2013-10-15 05:29:00,57.9,45.4,29.91,South,180,0.0,0.0,63,0.00,,OVC090,0.00,VWS V14.01,2013-10-15 10:29:00,
2013-10-15 05:30:00,57.9,45.4,29.91,South,180,2.2,2.2,63,0.00,,OVC090,0.00,VWS V14.01,2013-10-15 10:30:00,
2013-10-15 05:33:00,57.9,45.4,29.91,South,180,0.0,0.0,63,0.00,,OVC090,0.00,VWS V14.01,2013-10-15 10:33:00,
2013-10-15 05:34:00,57.9,45.4,29.91,NNW,338,28.0,28.0,63,0.00,,OVC090,0.00,VWS V14.01,2013-10-15 10:34:00,
2013-10-15 05:36:00,57.9,45.4,29.91,South,180,0.0,8.8,63,0.00,,OVC090,0.00,VWS V14.01,2013-10-15 10:36:00,
2013-10-15 05:38:00,57.9,45.4,29.90,South,180,0.0,1.6,63,0.00,,OVC090,0.00,VWS V14.01,2013-10-15 10:38:00,
2013-10-15 05:40:00,57.9,45.4,29.90,South,180,0.0,0.0,63,0.00,,OVC080,0.00,VWS V14.01,2013-10-15 10:40:00,
2013-10-15 05:42:00,57.9,45.8,29.90,SSE,158,0.0,1.6,64,0.00,,OVC080,0.00,VWS V14.01,2013-10-15 10:42:00,
2013-10-15 05:43:00,57.9,45.8,29.90,SSE,158,0.0,0.0,64,0.00,,OVC080,0.00,VWS V14.01,2013-10-15 10:43:00,
2013-10-15 05:45:00,58.1,46.0,29.91,SSE,158,0.0,0.0,64,0.00,,OVC080,0.00,VWS V14.01,2013-10-15 10:45:00,
2013-10-15 05:46:00,57.9,45.8,29.91,South,180,0.0,3.0,64,0.00,,OVC080,0.00,VWS V14.01,2013-10-15 10:46:00,
2013-10-15 05:47:00,57.9,45.8,29.91,South,180,0.0,0.0,64,0.00,,OVC080,0.00,VWS V14.01,2013-10-15 10:47:00,
2013-10-15 05:48:00,57.9,45.8,29.92,South,180,4.8,4.8,64,0.00,,OVC080,0.00,VWS V14.01,2013-10-15 10:48:00,
2013-10-15 05:50:00,57.9,45.8,29.92,South,180,7.0,7.0,64,0.00,,OVC080,0.00,VWS V14.01,2013-10-15 10:50:00,
2013-10-15 05:54:00,57.9,46.2,29.91,South,180,0.0,1.2,65,0.00,,OVC080,0.00,VWS V14.01,2013-10-15 10:54:00,
2013-10-15 05:55:00,57.9,46.2,29.91,South,180,1.2,1.2,65,0.00,,OVC080,0.00,VWS V14.01,2013-10-15 10:55:00,
2013-10-15 05:56:00,57.9,46.2,29.91,South,180,4.8,4.8,65,0.00,,OVC080,0.00,VWS V14.01,2013-10-15 10:56:00,
2013-10-15 05:57:00,57.9,46.2,29.91,South,180,0.0,0.0,65,0.00,,OVC080,0.00,VWS V14.01,2013-10-15 10:57:00,
2013-10-15 06:00:00,57.7,46.4,29.91,South,180,2.6,2.6,66,0.00,,OVC080,0.00,VWS V14.01,2013-10-15 11:00:00,
2013-10-15 06:01:00,57.7,46.4,29.91,South,180,2.6,2.6,66,0.00,,OVC080,0.00,VWS V14.01,2013-10-15 11:01:00,
2013-10-15 06:02:00,57.7,46.4,29.91,South,180,2.6,2.6,66,0.00,,OVC080,0.00,VWS V14.01,2013-10-15 11:02:00,
2013-10-15 06:04:00,57.7,46.4,29.91,South,180,0.8,2.6,66,0.00,,OVC080,0.00,VWS V14.01,2013-10-15 11:04:00,
2013-10-15 06:05:00,57.7,46.4,29.91,South,180,0.8,0.8,66,0.00,,OVC080,0.00,VWS V14.01,2013-10-15 11:05:00,
2013-10-15 06:06:00,57.7,46.4,29.91,South,180,3.4,3.4,66,0.00,,OVC080,0.00,VWS V14.01,2013-10-15 11:06:00,
2013-10-15 06:07:00,57.5,46.6,29.91,South,180,0.0,0.0,67,0.00,,OVC080,0.00,VWS V14.01,2013-10-15 11:07:00,
2013-10-15 06:08:00,57.5,46.6,29.91,SSE,158,7.6,7.6,67,0.00,,OVC080,0.00,VWS V14.01,2013-10-15 11:08:00,
2013-10-15 06:11:00,57.5,47.0,29.91,SSE,158,1.2,1.2,68,0.00,,OVC080,0.00,VWS V14.01,2013-10-15 11:11:00,
2013-10-15 06:12:00,57.5,47.0,29.91,SSE,158,0.0,1.2,68,0.00,,OVC080,0.00,VWS V14.01,2013-10-15 11:12:00,
2013-10-15 06:14:00,57.3,46.8,29.90,SSW,202,0.0,1.2,68,0.00,,OVC080,0.00,VWS V14.01,2013-10-15 11:14:00,
2013-10-15 06:16:00,57.3,47.2,29.90,South,180,4.4,4.4,69,0.00,,OVC080,0.00,VWS V14.01,2013-10-15 11:16:00,
2013-10-15 06:17:00,57.3,47.2,29.90,South,180,5.2,5.2,69,0.00,,OVC080,0.00,VWS V14.01,2013-10-15 11:17:00,
2013-10-15 06:18:00,57.3,47.6,29.90,South,180,1.6,5.2,70,0.00,,OVC080,0.00,VWS V14.01,2013-10-15 11:18:00,
2013-10-15 06:20:00,57.2,47.5,29.90,South,180,0.0,4.4,70,0.00,,OVC080,0.00,VWS V14.01,2013-10-15 11:20:00,
2013-10-15 06:21:00,57.2,47.5,29.90,South,180,0.0,0.0,70,0.00,,OVC080,0.00,VWS V14.01,2013-10-15 11:21:00,
2013-10-15 06:22:00,57.2,47.5,29.90,South,180,1.6,1.6,70,0.00,,OVC080,0.00,VWS V14.01,2013-10-15 11:22:00,
2013-10-15 06:24:00,57.3,48.0,29.90,South,180,0.0,0.0,71,0.00,,OVC080,0.00,VWS V14.01,2013-10-15 11:24:00,
2013-10-15 06:26:00,57.3,48.0,29.90,South,180,0.0,0.0,71,0.00,,OVC080,0.00,VWS V14.01,2013-10-15 11:26:00,
2013-10-15 06:27:00,57.2,47.9,29.90,SSE,158,1.6,1.6,71,0.00,,OVC080,0.00,VWS V14.01,2013-10-15 11:27:00,
2013-10-15 06:28:00,57.2,48.3,29.90,SSE,158,1.6,3.4,72,0.00,,OVC080,0.00,VWS V14.01,2013-10-15 11:28:00,
2013-10-15 06:31:00,57.2,48.3,29.89,South,180,4.8,4.8,72,0.00,,OVC080,0.00,VWS V14.01,2013-10-15 11:31:00,
2013-10-15 06:32:00,57.2,48.3,29.89,South,180,2.6,4.8,72,0.00,,OVC080,0.00,VWS V14.01,2013-10-15 11:32:00,
2013-10-15 06:34:00,57.0,48.4,29.89,South,180,0.0,3.4,73,0.00,,OVC080,0.00,VWS V14.01,2013-10-15 11:34:00,
2013-10-15 06:37:00,57.2,48.6,29.89,South,180,0.0,0.0,73,0.00,,OVC080,0.00,VWS V14.01,2013-10-15 11:37:00,
2013-10-15 06:38:00,57.0,48.4,29.89,South,180,0.0,0.0,73,0.00,,OVC080,0.00,VWS V14.01,2013-10-15 11:38:00,
2013-10-15 06:39:00,57.2,49.0,29.89,South,180,10.6,10.6,74,0.00,,OVC080,0.00,VWS V14.01,2013-10-15 11:39:00,
2013-10-15 06:41:00,57.0,48.8,29.89,SE,135,2.2,4.0,74,0.00,,OVC070,0.00,VWS V14.01,2013-10-15 11:41:00,
2013-10-15 06:42:00,57.2,49.0,29.89,South,180,2.6,2.6,74,0.00,,OVC070,0.00,VWS V14.01,2013-10-15 11:42:00,
2013-10-15 06:43:00,57.0,49.2,29.88,South,180,1.2,2.6,75,0.00,,OVC070,0.00,VWS V14.01,2013-10-15 11:43:00,
2013-10-15 06:46:00,57.0,49.2,29.88,NNW,338,28.0,28.0,75,0.00,,OVC070,0.00,VWS V14.01,2013-10-15 11:46:00,
2013-10-15 06:48:00,57.0,49.5,29.88,SSE,158,0.0,28.0,76,0.00,,OVC070,0.00,VWS V14.01,2013-10-15 11:48:00,
2013-10-15 06:52:00,57.2,49.7,29.87,SSE,158,0.0,4.4,76,0.00,,OVC070,0.00,VWS V14.01,2013-10-15 11:52:00,
2013-10-15 06:54:00,57.0,49.9,29.88,South,180,4.0,4.0,77,0.00,,OVC070,0.00,VWS V14.01,2013-10-15 11:54:00,
2013-10-15 06:55:00,57.0,49.9,29.87,SSE,158,10.2,10.2,77,0.00,,OVC070,0.00,VWS V14.01,2013-10-15 11:55:00,
2013-10-15 06:56:00,57.2,50.1,29.87,South,180,5.2,10.2,77,0.00,,OVC070,0.00,VWS V14.01,2013-10-15 11:56:00,
2013-10-15 06:58:00,57.0,50.2,29.87,SSE,158,10.2,10.2,78,0.00,,OVC070,0.00,VWS V14.01,2013-10-15 11:58:00,
2013-10-15 07:00:00,57.0,50.2,29.87,SSE,158,3.0,10.2,78,0.00,,OVC070,0.00,VWS V14.01,2013-10-15 12:00:00,
2013-10-15 07:02:00,57.0,50.2,29.87,South,180,3.4,3.4,78,0.00,,OVC070,0.00,VWS V14.01,2013-10-15 12:02:00,
2013-10-15 07:03:00,57.0,50.2,29.87,South,180,6.6,6.6,78,0.00,,OVC070,0.00,VWS V14.01,2013-10-15 12:03:00,
2013-10-15 07:04:00,56.8,50.4,29.87,SSE,158,11.0,11.0,79,0.00,,OVC070,0.00,VWS V14.01,2013-10-15 12:04:00,
2013-10-15 07:05:00,57.0,50.6,29.87,SSE,158,0.0,11.0,79,0.00,,OVC070,0.00,VWS V14.01,2013-10-15 12:05:00,
2013-10-15 07:06:00,57.0,50.6,29.87,SSE,158,0.0,0.0,79,0.00,,OVC070,0.00,VWS V14.01,2013-10-15 12:06:00,
2013-10-15 07:07:00,57.0,50.6,29.87,SSE,158,8.4,8.4,79,0.00,,OVC070,0.00,VWS V14.01,2013-10-15 12:07:00,
2013-10-15 07:08:00,57.0,50.6,29.87,South,180,4.8,4.8,79,0.00,,OVC070,0.00,VWS V14.01,2013-10-15 12:08:00,
2013-10-15 07:11:00,57.0,50.9,29.87,SSE,158,2.2,14.2,80,0.00,,OVC070,0.00,VWS V14.01,2013-10-15 12:11:00,
2013-10-15 07:12:00,57.0,50.9,29.87,South,180,0.0,0.0,80,0.00,,OVC070,0.00,VWS V14.01,2013-10-15 12:12:00,
2013-10-15 07:13:00,57.0,50.9,29.87,ESE,112,5.8,5.8,80,0.00,,OVC070,0.00,VWS V14.01,2013-10-15 12:13:00,
2013-10-15 07:14:00,57.0,51.2,29.87,South,180,7.0,7.0,81,0.00,,OVC070,0.00,VWS V14.01,2013-10-15 12:14:00,
2013-10-15 07:16:00,56.8,51.0,29.87,South,180,3.4,3.4,81,0.00,,OVC070,0.00,VWS V14.01,2013-10-15 12:16:00,
2013-10-15 07:17:00,57.0,51.2,29.87,South,180,5.2,5.2,81,0.00,,OVC070,0.00,VWS V14.01,2013-10-15 12:17:00,
2013-10-15 07:19:00,57.0,51.2,29.87,SSE,158,3.0,8.0,81,0.00,,OVC070,0.00,VWS V14.01,2013-10-15 12:19:00,
2013-10-15 07:20:00,57.0,51.6,29.87,South,180,7.0,8.0,82,0.00,,OVC070,0.00,VWS V14.01,2013-10-15 12:20:00,
2013-10-15 07:21:00,57.2,51.8,29.87,SSE,158,0.8,7.0,82,0.00,,OVC070,0.00,VWS V14.01,2013-10-15 12:21:00,
2013-10-15 07:23:00,57.2,51.8,29.87,SSE,158,0.0,0.0,82,0.00,,OVC070,0.00,VWS V14.01,2013-10-15 12:23:00,
2013-10-15 07:25:00,57.2,52.1,29.87,SSE,158,0.0,7.0,83,0.00,,OVC070,0.00,VWS V14.01,2013-10-15 12:25:00,
2013-10-15 07:27:00,57.2,52.1,29.87,SSE,158,0.0,3.4,83,0.00,,OVC070,0.00,VWS V14.01,2013-10-15 12:27:00,
2013-10-15 07:28:00,57.2,52.1,29.87,SSE,158,1.6,1.6,83,0.00,,OVC070,0.00,VWS V14.01,2013-10-15 12:28:00,
2013-10-15 07:29:00,57.2,52.1,29.87,SSE,158,1.2,1.6,83,0.00,,OVC070,0.00,VWS V14.01,2013-10-15 12:29:00,
2013-10-15 07:30:00,57.3,52.2,29.87,South,180,5.8,5.8,83,0.00,,OVC070,0.00,VWS V14.01,2013-10-15 12:30:00,
2013-10-15 07:34:00,57.3,52.5,29.87,South,180,0.0,0.0,84,0.00,,OVC070,0.00,VWS V14.01,2013-10-15 12:34:00,
2013-10-15 07:35:00,57.3,52.5,29.87,South,180,8.8,8.8,84,0.00,,OVC070,0.00,VWS V14.01,2013-10-15 12:35:00,
2013-10-15 07:36:00,57.3,52.5,29.87,South,180,4.0,8.8,84,0.00,,OVC070,0.00,VWS V14.01,2013-10-15 12:36:00,
2013-10-15 07:40:00,57.3,52.5,29.87,South,180,5.2,5.2,84,0.00,,OVC070,0.00,VWS V14.01,2013-10-15 12:40:00,
2013-10-15 07:42:00,57.5,52.7,29.87,South,180,6.6,6.6,84,0.00,,OVC070,0.00,VWS V14.01,2013-10-15 12:42:00,
2013-10-15 07:44:00,57.5,52.7,29.87,South,180,5.2,5.2,84,0.00,,OVC070,0.00,VWS V14.01,2013-10-15 12:44:00,
2013-10-15 07:45:00,57.5,52.7,29.87,South,180,0.0,5.2,84,0.00,,OVC070,0.00,VWS V14.01,2013-10-15 12:45:00,
2013-10-15 07:46:00,57.5,52.7,29.87,SSE,158,6.2,6.2,84,0.00,,OVC070,0.00,VWS V14.01,2013-10-15 12:46:00,
2013-10-15 07:48:00,57.7,52.9,29.87,South,180,8.8,8.8,84,0.00,,OVC070,0.00,VWS V14.01,2013-10-15 12:48:00,
2013-10-15 07:52:00,57.9,53.1,29.87,SSE,158,4.0,4.0,84,0.00,,OVC070,0.00,VWS V14.01,2013-10-15 12:52:00,
2013-10-15 07:54:00,57.9,53.1,29.87,South,180,3.4,4.0,84,0.00,,OVC070,0.00,VWS V14.01,2013-10-15 12:54:00,
2013-10-15 07:56:00,57.9,53.1,29.88,SSW,202,5.2,5.2,84,0.00,,OVC070,0.00,VWS V14.01,2013-10-15 12:56:00,
2013-10-15 07:57:00,57.9,53.1,29.88,SSE,158,1.2,5.2,84,0.00,,OVC070,0.00,VWS V14.01,2013-10-15 12:57:00,
2013-10-15 07:58:00,58.1,53.3,29.87,SSW,202,0.0,5.2,84,0.00,,OVC070,0.00,VWS V14.01,2013-10-15 12:58:00,
2013-10-15 07:59:00,57.9,53.1,29.87,SSE,158,0.0,0.0,84,0.00,,OVC070,0.00,VWS V14.01,2013-10-15 12:59:00,
2013-10-15 08:01:00,57.9,53.1,29.87,SSE,158,4.8,4.8,84,0.00,,,0.00,VWS V14.01,2013-10-15 13:01:00,
2013-10-15 08:02:00,57.9,53.1,29.87,SSE,158,2.6,4.8,84,0.00,,,0.00,VWS V14.01,2013-10-15 13:02:00,
2013-10-15 08:03:00,57.9,53.1,29.87,SSE,158,5.2,5.2,84,0.00,,,0.00,VWS V14.01,2013-10-15 13:03:00,
2013-10-15 08:05:00,57.9,53.1,29.87,South,180,0.0,4.8,84,0.00,,,0.00,VWS V14.01,2013-10-15 13:05:00,
2013-10-15 08:06:00,58.1,53.0,29.87,ESE,112,4.4,4.4,83,0.00,,,0.00,VWS V14.01,2013-10-15 13:06:00,
2013-10-15 08:08:00,58.1,53.0,29.87,South,180,11.0,11.0,83,0.00,,,0.00,VWS V14.01,2013-10-15 13:08:00,
2013-10-15 08:09:00,58.1,53.0,29.87,SSE,158,0.0,11.0,83,0.00,,,0.00,VWS V14.01,2013-10-15 13:09:00,
2013-10-15 08:12:00,57.9,52.8,29.87,NNW,338,42.4,42.4,83,0.00,,,0.00,VWS V14.01,2013-10-15 13:12:00,
2013-10-15 08:13:00,58.1,53.3,29.87,SSE,158,1.6,42.4,84,0.00,,,0.00,VWS V14.01,2013-10-15 13:13:00,
2013-10-15 08:14:00,58.1,53.3,29.87,SSE,158,0.0,42.4,84,0.00,,,0.00,VWS V14.01,2013-10-15 13:14:00,
2013-10-15 08:16:00,57.9,52.8,29.86,SE,135,0.0,0.0,83,0.00,,,0.00,VWS V14.01,2013-10-15 13:16:00,
2013-10-15 08:20:00,57.9,52.8,29.87,South,180,5.8,6.2,83,0.00,,,0.00,VWS V14.01,2013-10-15 13:20:00,
2013-10-15 08:21:00,57.9,53.1,29.87,South,180,0.0,5.8,84,0.00,,,0.00,VWS V14.01,2013-10-15 13:21:00,
2013-10-15 08:22:00,57.9,52.8,29.87,South,180,4.8,5.8,83,0.00,,,0.00,VWS V14.01,2013-10-15 13:22:00,
2013-10-15 08:25:00,57.9,52.8,29.87,SE,135,2.6,2.6,83,0.00,,,0.00,VWS V14.01,2013-10-15 13:25:00,
2013-10-15 08:26:00,57.9,53.1,29.87,SSE,158,0.0,0.0,84,0.00,,,0.00,VWS V14.01,2013-10-15 13:26:00,
2013-10-15 08:27:00,57.9,53.1,29.87,SSE,158,1.2,1.2,84,0.00,,,0.00,VWS V14.01,2013-10-15 13:27:00,
2013-10-15 08:28:00,58.1,53.3,29.87,South,180,7.0,7.0,84,0.00,,,0.00,VWS V14.01,2013-10-15 13:28:00,
2013-10-15 08:29:00,58.1,53.3,29.87,South,180,5.8,7.0,84,0.00,,,0.00,VWS V14.01,2013-10-15 13:29:00,
2013-10-15 08:31:00,57.9,53.4,29.87,SSE,158,5.8,5.8,85,0.00,,,0.00,VWS V14.01,2013-10-15 13:31:00,
2013-10-15 08:33:00,57.9,53.4,29.87,South,180,6.6,6.6,85,0.00,,,0.00,VWS V14.01,2013-10-15 13:33:00,
2013-10-15 08:34:00,57.9,53.4,29.87,South,180,4.0,6.6,85,0.00,,,0.00,VWS V14.01,2013-10-15 13:34:00,
2013-10-15 08:35:00,57.9,53.4,29.87,SSE,158,3.0,4.0,85,0.00,,,0.00,VWS V14.01,2013-10-15 13:35:00,
2013-10-15 08:36:00,57.9,53.4,29.87,SSE,158,5.8,5.8,85,0.00,,,0.00,VWS V14.01,2013-10-15 13:36:00,
2013-10-15 08:37:00,57.9,53.4,29.87,SSE,158,0.0,5.8,85,0.00,,,0.00,VWS V14.01,2013-10-15 13:37:00,
2013-10-15 08:40:00,57.9,53.4,29.86,SSE,158,0.0,0.0,85,0.00,,,0.00,VWS V14.01,2013-10-15 13:40:00,
2013-10-15 08:41:00,57.9,53.4,29.86,SSE,158,6.6,6.6,85,0.00,,,0.00,VWS V14.01,2013-10-15 13:41:00,
2013-10-15 08:45:00,57.9,53.4,29.86,SE,135,5.2,8.8,85,0.00,,,0.00,VWS V14.01,2013-10-15 13:45:00,
2013-10-15 08:46:00,57.9,53.4,29.86,SE,135,0.0,8.8,85,0.00,,,0.00,VWS V14.01,2013-10-15 13:46:00,
2013-10-15 08:47:00,57.9,53.4,29.86,SE,135,0.0,0.0,85,0.00,,,0.00,VWS V14.01,2013-10-15 13:47:00,
2013-10-15 08:49:00,57.9,53.4,29.86,SE,135,7.0,7.0,85,0.00,,-RA,0.00,VWS V14.01,2013-10-15 13:49:00,
2013-10-15 08:50:00,57.7,53.2,29.87,South,180,0.0,7.0,85,0.00,,-RA,0.00,VWS V14.01,2013-10-15 13:50:00,
2013-10-15 08:51:00,57.9,53.7,29.86,South,180,4.4,4.4,86,0.00,,-RA,0.00,VWS V14.01,2013-10-15 13:51:00,
2013-10-15 08:52:00,57.9,53.7,29.86,South,180,3.4,3.4,86,0.00,,-RA,0.00,VWS V14.01,2013-10-15 13:52:00,
2013-10-15 08:54:00,57.9,53.7,29.86,South,180,1.2,1.2,86,0.00,,-RA,0.00,VWS V14.01,2013-10-15 13:54:00,
2013-10-15 08:56:00,57.9,53.7,29.87,South,180,0.0,1.2,86,0.00,,-RA,0.00,VWS V14.01,2013-10-15 13:56:00,
2013-10-15 08:57:00,57.9,53.7,29.87,South,180,0.0,0.0,86,0.00,,-RA,0.00,VWS V14.01,2013-10-15 13:57:00,
2013-10-15 09:00:00,57.9,53.7,29.87,SSE,158,0.0,6.6,86,0.00,,-RA,0.00,VWS V14.01,2013-10-15 14:00:00,
2013-10-15 09:01:00,57.9,53.7,29.87,SSE,158,1.6,1.6,86,0.00,,-RA,0.00,VWS V14.01,2013-10-15 14:01:00,
2013-10-15 09:02:00,57.9,53.7,29.87,South,180,3.4,3.4,86,0.00,,-RA,0.00,VWS V14.01,2013-10-15 14:02:00,
2013-10-15 09:06:00,57.9,53.7,29.87,South,180,0.0,5.2,86,0.00,,-RA,0.00,VWS V14.01,2013-10-15 14:06:00,
2013-10-15 09:07:00,57.9,53.7,29.87,South,180,0.0,0.0,86,0.00,,-RA,0.00,VWS V14.01,2013-10-15 14:07:00,
2013-10-15 09:08:00,57.9,53.7,29.87,SE,135,0.0,0.0,86,0.00,,-RA,0.00,VWS V14.01,2013-10-15 14:08:00,
2013-10-15 09:10:00,57.9,53.7,29.86,SE,135,0.0,0.0,86,0.00,,-RA,0.00,VWS V14.01,2013-10-15 14:10:00,
2013-10-15 09:11:00,57.9,53.7,29.86,SE,135,0.0,0.0,86,0.00,,-RA,0.00,VWS V14.01,2013-10-15 14:11:00,
2013-10-15 09:12:00,58.1,53.9,29.87,SE,135,0.0,0.0,86,0.00,,-RA,0.00,VWS V14.01,2013-10-15 14:12:00,
2013-10-15 09:14:00,57.9,54.1,29.86,South,180,7.6,7.6,87,0.00,,-RA,0.00,VWS V14.01,2013-10-15 14:14:00,
2013-10-15 09:16:00,57.9,54.1,29.86,South,180,5.2,5.2,87,0.00,,-RA,0.00,VWS V14.01,2013-10-15 14:16:00,
2013-10-15 09:17:00,58.1,53.9,29.86,SSE,158,0.0,0.0,86,0.00,,-RA,0.00,VWS V14.01,2013-10-15 14:17:00,
2013-10-15 09:22:00,58.1,53.9,29.86,South,180,2.2,8.4,86,0.00,,-RA,0.00,VWS V14.01,2013-10-15 14:22:00,
2013-10-15 09:23:00,58.1,53.9,29.86,South,180,0.0,0.0,86,0.00,,-RA,0.00,VWS V14.01,2013-10-15 14:23:00,
2013-10-15 09:24:00,58.1,53.9,29.86,South,180,0.0,0.0,86,0.00,,-RA,0.00,VWS V14.01,2013-10-15 14:24:00,
2013-10-15 09:27:00,58.2,54.0,29.86,South,180,0.0,0.0,86,0.00,,-RA,0.00,VWS V14.01,2013-10-15 14:27:00,
2013-10-15 09:28:00,58.1,53.9,29.86,South,180,0.0,0.0,86,0.00,,-RA,0.00,VWS V14.01,2013-10-15 14:28:00,
2013-10-15 09:29:00,58.2,54.0,29.87,SSE,158,2.6,2.6,86,0.00,,-RA,0.00,VWS V14.01,2013-10-15 14:29:00,
2013-10-15 09:30:00,58.1,53.9,29.86,South,180,4.8,4.8,86,0.00,,-RA,0.00,VWS V14.01,2013-10-15 14:30:00,
2013-10-15 09:33:00,58.2,54.0,29.86,South,180,4.0,4.0,86,0.00,,-RA,0.00,VWS V14.01,2013-10-15 14:33:00,
2013-10-15 09:34:00,58.2,54.4,29.86,South,180,2.6,4.0,87,0.00,,-RA,0.00,VWS V14.01,2013-10-15 14:34:00,
2013-10-15 09:36:00,58.1,53.9,29.86,South,180,6.2,6.2,86,0.00,,-RA,0.00,VWS V14.01,2013-10-15 14:36:00,
2013-10-15 09:38:00,58.2,54.4,29.86,SSE,158,0.0,4.8,87,0.00,,-RA,0.00,VWS V14.01,2013-10-15 14:38:00,
2013-10-15 09:40:00,58.2,54.4,29.86,SSE,158,0.0,0.0,87,0.00,,-RA,0.00,VWS V14.01,2013-10-15 14:40:00,
2013-10-15 09:41:00,58.2,54.4,29.86,SE,135,0.0,0.0,87,0.00,,-RA,0.00,VWS V14.01,2013-10-15 14:41:00,
2013-10-15 09:42:00,58.2,54.4,29.86,South,180,0.0,0.0,87,0.00,,-RA,0.00,VWS V14.01,2013-10-15 14:42:00,
2013-10-15 09:44:00,58.2,54.4,29.86,SSW,202,0.0,0.0,87,0.00,,-RA,0.00,VWS V14.01,2013-10-15 14:44:00,
2013-10-15 09:46:00,58.4,54.5,29.85,South,180,0.0,3.0,87,0.00,,-RA,0.00,VWS V14.01,2013-10-15 14:46:00,
2013-10-15 09:49:00,58.4,54.5,29.86,SSE,158,3.0,3.0,87,0.00,,-RA,0.00,VWS V14.01,2013-10-15 14:49:00,
2013-10-15 09:50:00,58.4,54.5,29.85,South,180,2.2,3.0,87,0.00,,-RA,0.00,VWS V14.01,2013-10-15 14:50:00,
2013-10-15 09:51:00,58.4,54.5,29.85,SSE,158,5.2,5.2,87,0.00,,-RA,0.00,VWS V14.01,2013-10-15 14:51:00,
2013-10-15 09:54:00,58.4,54.5,29.85,South,180,0.0,0.0,87,0.00,,-RA,0.00,VWS V14.01,2013-10-15 14:54:00,
2013-10-15 09:55:00,58.6,54.8,29.85,SSW,202,0.0,0.0,87,0.00,,-RA,0.00,VWS V14.01,2013-10-15 14:55:00,
2013-10-15 09:56:00,58.4,54.5,29.85,South,180,0.0,0.0,87,0.00,,-RA,0.00,VWS V14.01,2013-10-15 14:56:00,
2013-10-15 09:57:00,58.6,55.1,29.85,South,180,0.0,0.0,88,0.00,,-RA,0.00,VWS V14.01,2013-10-15 14:57:00,
2013-10-15 09:58:00,58.6,55.1,29.85,SSE,158,6.6,6.6,88,0.00,,-RA,0.00,VWS V14.01,2013-10-15 14:58:00,
2013-10-15 10:00:00,58.4,54.9,29.85,SE,135,2.2,6.6,88,0.00,,-RA,0.00,VWS V14.01,2013-10-15 15:00:00,
2013-10-15 10:02:00,58.6,55.1,29.85,SSW,202,0.0,2.2,88,0.00,,-RA,0.00,VWS V14.01,2013-10-15 15:02:00,
2013-10-15 10:03:00,58.6,55.1,29.85,SSW,202,0.0,0.0,88,0.00,,-RA,0.00,VWS V14.01,2013-10-15 15:03:00,
2013-10-15 10:04:00,58.4,54.9,29.85,South,180,5.2,5.2,88,0.00,,-RA,0.00,VWS V14.01,2013-10-15 15:04:00,
2013-10-15 10:07:00,58.6,55.1,29.85,WSW,248,2.2,2.2,88,0.00,,-RA,0.00,VWS V14.01,2013-10-15 15:07:00,
2013-10-15 10:08:00,58.6,55.1,29.85,SSW,202,2.2,2.2,88,0.00,,-RA,0.00,VWS V14.01,2013-10-15 15:08:00,
2013-10-15 10:09:00,58.6,55.1,29.85,South,180,0.0,0.0,88,0.00,,-RA,0.00,VWS V14.01,2013-10-15 15:09:00,
2013-10-15 10:10:00,58.8,55.3,29.85,South,180,1.2,7.0,88,0.00,,-RA,0.00,VWS V14.01,2013-10-15 15:10:00,
2013-10-15 10:14:00,58.8,55.3,29.85,SSE,158,0.0,4.8,88,0.00,,-RA,0.00,VWS V14.01,2013-10-15 15:14:00,
2013-10-15 10:16:00,59.0,55.5,29.85,SSE,158,2.6,3.4,88,0.00,,-RA,0.00,VWS V14.01,2013-10-15 15:16:00,
2013-10-15 10:17:00,59.0,55.5,29.84,South,180,9.8,9.8,88,0.00,,-RA,0.00,VWS V14.01,2013-10-15 15:17:00,
2013-10-15 10:19:00,59.1,55.5,29.84,South,180,0.0,0.0,88,0.00,,-RA,0.00,VWS V14.01,2013-10-15 15:19:00,
2013-10-15 10:20:00,59.1,55.5,29.84,SSE,158,3.0,3.0,88,0.00,,-RA,0.00,VWS V14.01,2013-10-15 15:20:00,
2013-10-15 10:21:00,59.1,55.5,29.84,SSW,202,3.0,3.0,88,0.00,,-RA,0.00,VWS V14.01,2013-10-15 15:21:00,
2013-10-15 10:22:00,59.1,55.5,29.84,SSW,202,0.0,3.0,88,0.00,,-RA,0.00,VWS V14.01,2013-10-15 15:22:00,
2013-10-15 10:26:00,59.1,55.9,29.84,SSE,158,0.0,0.0,89,0.00,,-RA,0.00,VWS V14.01,2013-10-15 15:26:00,
2013-10-15 10:27:00,59.3,56.1,29.84,South,180,0.0,0.0,89,0.00,,-RA,0.00,VWS V14.01,2013-10-15 15:27:00,
2013-10-15 10:28:00,59.3,56.1,29.84,South,180,5.2,0.0,89,0.00,,-RA,0.00,VWS V14.01,2013-10-15 15:28:00,
2013-10-15 10:33:00,59.5,56.3,29.84,South,180,0.0,7.0,89,0.00,,-RA,0.00,VWS V14.01,2013-10-15 15:33:00,
2013-10-15 10:34:00,59.5,56.3,29.84,SSE,158,0.0,7.0,89,0.00,,-RA,0.00,VWS V14.01,2013-10-15 15:34:00,
2013-10-15 10:35:00,59.5,56.3,29.84,SSW,202,3.0,3.0,89,0.00,,-RA,0.00,VWS V14.01,2013-10-15 15:35:00,
2013-10-15 10:37:00,59.7,56.5,29.84,SSE,158,0.0,0.0,89,0.00,,-RA,0.00,VWS V14.01,2013-10-15 15:37:00,
2013-10-15 10:39:00,59.7,56.5,29.84,South,180,0.0,0.0,89,0.00,,-RA,0.00,VWS V14.01,2013-10-15 15:39:00,
2013-10-15 10:40:00,59.7,56.5,29.84,South,180,0.0,0.0,89,0.00,,,0.00,VWS V14.01,2013-10-15 15:40:00,
2013-10-15 10:41:00,59.9,56.7,29.84,SE,135,0.0,0.0,89,0.00,,,0.00,VWS V14.01,2013-10-15 15:41:00,
2013-10-15 10:42:00,59.9,56.3,29.84,SSE,158,6.6,6.6,88,0.00,,,0.00,VWS V14.01,2013-10-15 15:42:00,
2013-10-15 10:43:00,59.9,56.3,29.84,South,180,0.0,6.6,88,0.00,,,0.00,VWS V14.01,2013-10-15 15:43:00,
2013-10-15 10:44:00,59.9,56.3,29.84,SSE,158,0.0,0.0,88,0.00,,,0.00,VWS V14.01,2013-10-15 15:44:00,
2013-10-15 10:48:00,60.0,56.4,29.84,South,180,0.0,2.2,88,0.00,,,0.00,VWS V14.01,2013-10-15 15:48:00,
2013-10-15 10:49:00,60.0,56.4,29.84,South,180,0.0,0.0,88,0.00,,,0.00,VWS V14.01,2013-10-15 15:49:00,
2013-10-15 10:50:00,60.2,56.6,29.83,South,180,0.0,0.0,88,0.00,,,0.00,VWS V14.01,2013-10-15 15:50:00,
2013-10-15 10:54:00,60.2,56.6,29.84,South,180,0.0,0.0,88,0.00,,,0.00,VWS V14.01,2013-10-15 15:54:00,
2013-10-15 10:55:00,60.2,56.6,29.84,SSE,158,4.8,4.8,88,0.00,,,0.00,VWS V14.01,2013-10-15 15:55:00,
2013-10-15 10:56:00,60.2,56.6,29.84,South,180,0.0,4.8,88,0.00,,,0.00,VWS V14.01,2013-10-15 15:56:00,
2013-10-15 10:58:00,60.2,56.6,29.84,South,180,0.0,3.4,88,0.00,,,0.00,VWS V14.01,2013-10-15 15:58:00,
2013-10-15 11:01:00,60.4,56.8,29.84,SE,135,5.8,5.8,88,0.00,,,0.00,VWS V14.01,2013-10-15 16:01:00,
2013-10-15 11:02:00,60.4,56.8,29.84,South,180,0.0,0.0,88,0.00,,,0.00,VWS V14.01,2013-10-15 16:02:00,
2013-10-15 11:04:00,60.4,56.8,29.84,South,180,4.4,6.2,88,0.00,,,0.00,VWS V14.01,2013-10-15 16:04:00,
2013-10-15 11:06:00,60.4,56.8,29.84,South,180,0.0,4.4,88,0.00,,,0.00,VWS V14.01,2013-10-15 16:06:00,
2013-10-15 11:10:00,60.4,56.5,29.84,SSE,158,5.8,5.8,87,0.00,,,0.00,VWS V14.01,2013-10-15 16:10:00,
2013-10-15 11:11:00,60.6,56.7,29.84,South,180,0.0,5.8,87,0.00,,,0.00,VWS V14.01,2013-10-15 16:11:00,
2013-10-15 11:12:00,60.6,56.7,29.84,SSE,158,0.0,0.0,87,0.00,,,0.00,VWS V14.01,2013-10-15 16:12:00,
2013-10-15 11:13:00,60.6,56.7,29.84,SSE,158,0.0,0.0,87,0.00,,,0.00,VWS V14.01,2013-10-15 16:13:00,
2013-10-15 11:15:00,60.6,56.7,29.84,South,180,7.0,7.0,87,0.00,,,0.00,VWS V14.01,2013-10-15 16:15:00,
2013-10-15 11:16:00,60.8,56.9,29.83,SSE,158,3.0,3.0,87,0.00,,,0.00,VWS V14.01,2013-10-15 16:16:00,
2013-10-15 11:20:00,60.9,57.0,29.83,South,180,0.0,5.8,87,0.00,,,0.00,VWS V14.01,2013-10-15 16:20:00,
2013-10-15 11:21:00,61.1,57.2,29.83,SSW,202,2.2,2.2,87,0.00,,,0.00,VWS V14.01,2013-10-15 16:21:00,
2013-10-15 11:22:00,61.1,57.2,29.83,SW,225,0.0,2.2,87,0.00,,,0.00,VWS V14.01,2013-10-15 16:22:00,
2013-10-15 11:23:00,61.5,57.6,29.83,South,180,7.0,7.0,87,0.00,,,0.00,VWS V14.01,2013-10-15 16:23:00,
2013-10-15 11:25:00,61.5,57.6,29.83,South,180,0.0,1.6,87,0.00,,,0.00,VWS V14.01,2013-10-15 16:25:00,
2013-10-15 11:26:00,61.5,57.6,29.83,South,180,0.0,0.0,87,0.00,,,0.00,VWS V14.01,2013-10-15 16:26:00,
2013-10-15 11:27:00,61.5,57.6,29.83,South,180,4.0,4.0,87,0.00,,,0.00,VWS V14.01,2013-10-15 16:27:00,
2013-10-15 11:30:00,61.7,57.5,29.83,WSW,248,6.2,7.6,86,0.00,,,0.00,VWS V14.01,2013-10-15 16:30:00,
2013-10-15 11:32:00,61.7,57.5,29.83,SSE,158,0.0,6.2,86,0.00,,,0.00,VWS V14.01,2013-10-15 16:32:00,
2013-10-15 11:33:00,61.7,57.5,29.83,SSE,158,0.0,0.0,86,0.00,,,0.00,VWS V14.01,2013-10-15 16:33:00,
2013-10-15 11:35:00,61.7,57.5,29.83,South,180,10.6,10.6,86,0.00,,,0.00,VWS V14.01,2013-10-15 16:35:00,
2013-10-15 11:36:00,61.7,57.2,29.83,South,180,2.2,10.6,85,0.00,,,0.00,VWS V14.01,2013-10-15 16:36:00,
2013-10-15 11:37:00,62.0,57.5,29.83,SSE,158,0.0,2.2,85,0.00,,,0.00,VWS V14.01,2013-10-15 16:37:00,
2013-10-15 11:38:00,61.7,57.2,29.83,South,180,0.8,0.8,85,0.00,,,0.00,VWS V14.01,2013-10-15 16:38:00,
2013-10-15 11:39:00,61.8,57.2,29.83,South,180,3.4,3.4,85,0.00,,,0.00,VWS V14.01,2013-10-15 16:39:00,
2013-10-15 11:40:00,61.8,57.2,29.83,South,180,4.8,4.8,85,0.00,,,0.00,VWS V14.01,2013-10-15 16:40:00,
2013-10-15 11:42:00,61.8,57.2,29.83,South,180,0.0,0.0,85,0.00,,,0.00,VWS V14.01,2013-10-15 16:42:00,
2013-10-15 11:44:00,61.8,57.2,29.83,South,180,6.6,6.6,85,0.00,,,0.00,VWS V14.01,2013-10-15 16:44:00,
2013-10-15 11:45:00,62.0,57.1,29.83,South,180,0.0,6.6,84,0.00,,,0.00,VWS V14.01,2013-10-15 16:45:00,
2013-10-15 11:47:00,62.0,57.1,29.83,SSW,202,0.0,4.0,84,0.00,,,0.00,VWS V14.01,2013-10-15 16:47:00,
2013-10-15 11:48:00,62.0,57.1,29.83,SSW,202,0.0,4.0,84,0.00,,,0.00,VWS V14.01,2013-10-15 16:48:00,
2013-10-15 11:51:00,62.2,57.3,29.83,SW,225,0.0,0.0,84,0.00,,,0.00,VWS V14.01,2013-10-15 16:51:00,
2013-10-15 11:52:00,62.2,57.3,29.83,SSW,202,0.0,0.0,84,0.00,,,0.00,VWS V14.01,2013-10-15 16:52:00,
2013-10-15 11:53:00,62.2,57.3,29.83,SSW,202,0.0,0.0,84,0.00,,,0.00,VWS V14.01,2013-10-15 16:53:00,
2013-10-15 11:54:00,62.2,57.3,29.83,South,180,0.0,0.0,84,0.00,,,0.00,VWS V14.01,2013-10-15 16:54:00,
2013-10-15 11:55:00,62.2,57.0,29.83,South,180,0.8,0.8,83,0.00,,,0.00,VWS V14.01,2013-10-15 16:55:00,
2013-10-15 11:58:00,62.6,57.4,29.82,SSE,158,0.0,0.0,83,0.00,,,0.00,VWS V14.01,2013-10-15 16:58:00,
2013-10-15 11:59:00,62.4,57.2,29.82,SSE,158,0.0,0.0,83,0.00,,,0.00,VWS V14.01,2013-10-15 16:59:00,
2013-10-15 12:00:00,62.7,57.5,29.82,SSE,158,1.2,1.2,83,0.00,,,0.00,VWS V14.01,2013-10-15 17:00:00,
2013-10-15 12:02:00,62.7,57.5,29.82,SSE,158,4.4,4.4,83,0.00,,,0.00,VWS V14.01,2013-10-15 17:02:00,
2013-10-15 12:03:00,62.7,57.5,29.82,South,180,4.0,4.4,83,0.00,,,0.00,VWS V14.01,2013-10-15 17:03:00,
2013-10-15 12:07:00,63.1,57.5,29.82,SSE,158,7.6,8.0,82,0.00,,,0.00,VWS V14.01,2013-10-15 17:07:00,
2013-10-15 12:08:00,63.3,57.7,29.82,SSW,202,0.0,0.0,82,0.00,,,0.00,VWS V14.01,2013-10-15 17:08:00,
2013-10-15 12:09:00,63.3,57.7,29.82,SSW,202,0.0,0.0,82,0.00,,,0.00,VWS V14.01,2013-10-15 17:09:00,
2013-10-15 12:10:00,63.5,57.9,29.82,SSW,202,0.8,0.8,82,0.00,,,0.00,VWS V14.01,2013-10-15 17:10:00,
2013-10-15 12:11:00,63.5,57.6,29.82,SSW,202,2.6,2.6,81,0.00,,,0.00,VWS V14.01,2013-10-15 17:11:00,
2013-10-15 12:13:00,63.6,57.7,29.82,South,180,7.0,7.0,81,0.00,,,0.00,VWS V14.01,2013-10-15 17:13:00,
2013-10-15 12:14:00,63.8,57.9,29.82,SW,225,4.8,7.0,81,0.00,,,0.00,VWS V14.01,2013-10-15 17:14:00,
2013-10-15 12:18:00,64.4,57.8,29.82,SSE,158,0.0,6.6,79,0.00,,,0.00,VWS V14.01,2013-10-15 17:18:00,
2013-10-15 12:20:00,64.7,58.0,29.82,West,270,5.2,5.2,79,0.00,,,0.00,VWS V14.01,2013-10-15 17:20:00,
2013-10-15 12:22:00,65.1,58.1,29.82,South,180,3.0,3.0,78,0.00,,,0.00,VWS V14.01,2013-10-15 17:22:00,
2013-10-15 12:23:00,65.3,57.9,29.82,South,180,0.0,3.0,77,0.00,,,0.00,VWS V14.01,2013-10-15 17:23:00,
2013-10-15 12:26:00,65.6,57.8,29.82,SW,225,0.0,4.8,76,0.00,,,0.00,VWS V14.01,2013-10-15 17:26:00,
2013-10-15 12:27:00,65.6,57.5,29.82,SW,225,0.0,0.0,75,0.00,,,0.00,VWS V14.01,2013-10-15 17:27:00,
2013-10-15 12:28:00,65.6,57.5,29.82,WNW,292,0.0,0.0,75,0.00,,,0.00,VWS V14.01,2013-10-15 17:28:00,
2013-10-15 12:32:00,65.6,56.7,29.81,SSE,158,2.6,2.6,73,0.00,,,0.00,VWS V14.01,2013-10-15 17:32:00,
2013-10-15 12:33:00,65.6,56.7,29.82,South,180,0.0,2.6,73,0.00,,,0.00,VWS V14.01,2013-10-15 17:33:00,
2013-10-15 12:34:00,65.4,56.2,29.82,South,180,0.0,2.6,72,0.00,,,0.00,VWS V14.01,2013-10-15 17:34:00,
2013-10-15 12:36:00,65.4,56.2,29.81,SW,225,0.0,0.0,72,0.00,,,0.00,VWS V14.01,2013-10-15 17:36:00,
2013-10-15 12:38:00,65.4,56.2,29.81,West,270,1.2,1.2,72,0.00,,,0.00,VWS V14.01,2013-10-15 17:38:00,
2013-10-15 12:42:00,65.3,55.7,29.82,WNW,292,1.6,8.0,71,0.00,,OVC043,0.00,VWS V14.01,2013-10-15 17:42:00,
2013-10-15 12:44:00,64.2,54.2,29.82,West,270,3.4,6.6,70,0.00,,OVC043,0.00,VWS V14.01,2013-10-15 17:44:00,
2013-10-15 12:46:00,63.3,52.6,29.82,West,270,5.8,5.8,68,0.00,,OVC043,0.00,VWS V14.01,2013-10-15 17:46:00,
2013-10-15 12:47:00,62.9,52.2,29.82,West,270,5.2,5.2,68,0.00,,OVC043,0.00,VWS V14.01,2013-10-15 17:47:00,
2013-10-15 12:48:00,62.6,51.9,29.82,West,270,3.4,11.0,68,0.00,,OVC043,0.00,VWS V14.01,2013-10-15 17:48:00,
2013-10-15 12:50:00,62.6,52.3,29.83,West,270,0.0,3.4,69,0.00,,OVC043,0.00,VWS V14.01,2013-10-15 17:50:00,
2013-10-15 12:51:00,62.7,52.4,29.82,West,270,5.8,5.8,69,0.00,,OVC043,0.00,VWS V14.01,2013-10-15 17:51:00,
2013-10-15 12:52:00,62.7,52.4,29.83,SW,225,7.6,7.6,69,0.00,,OVC043,0.00,VWS V14.01,2013-10-15 17:52:00,
2013-10-15 12:54:00,62.9,53.0,29.82,West,270,6.2,6.2,70,0.00,,OVC043,0.00,VWS V14.01,2013-10-15 17:54:00,
2013-10-15 12:56:00,62.9,53.0,29.82,West,270,5.2,6.2,70,0.00,,OVC043,0.00,VWS V14.01,2013-10-15 17:56:00,
2013-10-15 12:57:00,62.9,53.0,29.82,West,270,5.2,5.2,70,0.00,,OVC043,0.00,VWS V14.01,2013-10-15 17:57:00,
2013-10-15 12:58:00,62.9,53.0,29.82,West,270,4.8,5.2,70,0.00,,OVC043,0.00,VWS V14.01,2013-10-15 17:58:00,
2013-10-15 12:59:00,62.9,53.0,29.82,West,270,5.2,5.2,70,0.00,,OVC043,0.00,VWS V14.01,2013-10-15 17:59:00,
2013-10-15 13:01:00,62.7,52.8,29.82,West,270,0.0,0.0,70,0.00,,OVC043,0.00,VWS V14.01,2013-10-15 18:01:00,
2013-10-15 13:02:00,62.9,53.0,29.82,SW,225,8.0,8.0,70,0.00,,OVC043,0.00,VWS V14.01,2013-10-15 18:02:00,
2013-10-15 13:04:00,62.7,52.8,29.82,WNW,292,0.0,8.0,70,0.00,,OVC043,0.00,VWS V14.01,2013-10-15 18:04:00,
2013-10-15 13:06:00,62.6,52.3,29.82,West,270,0.0,0.0,69,0.00,,OVC043,0.00,VWS V14.01,2013-10-15 18:06:00,
2013-10-15 13:07:00,62.6,52.3,29.82,West,270,0.0,0.0,69,0.00,,OVC043,0.00,VWS V14.01,2013-10-15 18:07:00,
2013-10-15 13:08:00,62.7,52.4,29.82,West,270,0.0,0.0,69,0.00,,OVC043,0.00,VWS V14.01,2013-10-15 18:08:00,
2013-10-15 13:11:00,62.4,52.1,29.82,West,270,3.4,3.4,69,0.00,,OVC043,0.00,VWS V14.01,2013-10-15 18:11:00,
2013-10-15 13:12:00,62.2,51.9,29.82,West,270,0.0,3.4,69,0.00,,OVC043,0.00,VWS V14.01,2013-10-15 18:12:00,
2013-10-15 13:13:00,62.2,51.9,29.82,West,270,7.0,7.0,69,0.00,,OVC043,0.00,VWS V14.01,2013-10-15 18:13:00,
2013-10-15 13:16:00,62.2,51.9,29.82,West,270,8.4,8.4,69,0.00,,OVC043,0.00,VWS V14.01,2013-10-15 18:16:00,
2013-10-15 13:18:00,62.0,51.7,29.82,West,270,4.4,4.4,69,0.00,,OVC043,0.00,VWS V14.01,2013-10-15 18:18:00,
2013-10-15 13:20:00,62.0,51.7,29.82,West,270,2.2,2.6,69,0.00,,OVC043,0.00,VWS V14.01,2013-10-15 18:20:00,
2013-10-15 13:24:00,62.4,52.1,29.82,West,270,6.2,6.2,69,0.00,,OVC043,0.00,VWS V14.01,2013-10-15 18:24:00,
2013-10-15 13:25:00,62.4,52.1,29.82,West,270,6.2,6.2,69,0.00,,OVC043,0.00,VWS V14.01,2013-10-15 18:25:00,
2013-10-15 13:26:00,62.4,52.1,29.81,West,270,0.0,6.2,69,0.00,,OVC043,0.00,VWS V14.01,2013-10-15 18:26:00,
2013-10-15 13:27:00,62.4,51.7,29.81,West,270,2.6,2.6,68,0.00,,OVC043,0.00,VWS V14.01,2013-10-15 18:27:00,
2013-10-15 13:30:00,62.9,52.2,29.81,West,270,0.0,4.4,68,0.00,,OVC043,0.00,VWS V14.01,2013-10-15 18:30:00,
2013-10-15 13:31:00,62.9,52.2,29.81,West,270,0.0,0.0,68,0.00,,OVC043,0.00,VWS V14.01,2013-10-15 18:31:00,
2013-10-15 13:32:00,63.1,52.4,29.81,West,270,0.0,3.4,68,0.00,,OVC043,0.00,VWS V14.01,2013-10-15 18:32:00,
2013-10-15 13:33:00,63.1,52.4,29.81,West,270,0.0,0.0,68,0.00,,OVC043,0.00,VWS V14.01,2013-10-15 18:33:00,
2013-10-15 13:34:00,63.3,52.6,29.81,West,270,7.0,7.0,68,0.00,,OVC043,0.00,VWS V14.01,2013-10-15 18:34:00,
2013-10-15 13:36:00,63.6,52.5,29.81,South,180,12.4,12.4,67,0.00,,OVC043,0.00,VWS V14.01,2013-10-15 18:36:00,
2013-10-15 13:39:00,63.8,52.2,29.81,West,270,4.4,4.4,66,0.00,,OVC043,0.00,VWS V14.01,2013-10-15 18:39:00,
2013-10-15 13:41:00,63.8,51.8,29.81,West,270,5.8,5.8,65,0.00,,BKN042,0.00,VWS V14.01,2013-10-15 18:41:00,
2013-10-15 13:42:00,63.6,51.6,29.81,WSW,248,3.0,5.8,65,0.00,,BKN042,0.00,VWS V14.01,2013-10-15 18:42:00,
2013-10-15 13:44:00,63.8,51.4,29.80,West,270,5.2,5.2,64,0.00,,BKN042,0.00,VWS V14.01,2013-10-15 18:44:00,
2013-10-15 13:45:00,64.0,51.6,29.80,SW,225,1.2,1.2,64,0.00,,BKN042,0.00,VWS V14.01,2013-10-15 18:45:00,
2013-10-15 13:46:00,64.2,51.8,29.80,West,270,4.8,4.8,64,0.00,,BKN042,0.00,VWS V14.01,2013-10-15 18:46:00,
2013-10-15 13:48:00,64.2,51.8,29.80,SW,225,11.0,11.0,64,0.00,,BKN042,0.00,VWS V14.01,2013-10-15 18:48:00,
2013-10-15 13:50:00,64.2,50.9,29.80,West,270,4.8,8.4,62,0.00,,BKN042,0.00,VWS V14.01,2013-10-15 18:50:00,
2013-10-15 13:51:00,64.2,50.9,29.80,West,270,4.8,4.8,62,0.00,,BKN042,0.00,VWS V14.01,2013-10-15 18:51:00,
2013-10-15 13:52:00,64.2,50.9,29.80,West,270,2.6,4.8,62,0.00,,BKN042,0.00,VWS V14.01,2013-10-15 18:52:00,
2013-10-15 13:53:00,64.0,50.7,29.81,West,270,0.0,0.0,62,0.00,,BKN042,0.00,VWS V14.01,2013-10-15 18:53:00,
2013-10-15 13:54:00,64.0,50.7,29.80,West,270,3.4,3.4,62,0.00,,BKN042,0.00,VWS V14.01,2013-10-15 18:54:00,
2013-10-15 13:58:00,64.2,50.9,29.80,West,270,3.4,4.0,62,0.00,,BKN042,0.00,VWS V14.01,2013-10-15 18:58:00,
2013-10-15 13:59:00,64.2,50.9,29.80,West,270,3.4,3.4,62,0.00,,BKN042,0.00,VWS V14.01,2013-10-15 18:59:00,
2013-10-15 14:00:00,64.2,50.9,29.80,West,270,2.6,3.4,62,0.00,,BKN042,0.00,VWS V14.01,2013-10-15 19:00:00,
2013-10-15 14:01:00,64.2,50.9,29.80,West,270,0.0,0.0,62,0.00,,BKN042,0.00,VWS V14.01,2013-10-15 19:01:00,
2013-10-15 14:05:00,64.5,51.2,29.80,WSW,248,3.0,3.0,62,0.00,,BKN042,0.00,VWS V14.01,2013-10-15 19:05:00,
2013-10-15 14:06:00,64.5,51.2,29.80,WSW,248,2.6,3.0,62,0.00,,BKN042,0.00,VWS V14.01,2013-10-15 19:06:00,
2013-10-15 14:07:00,64.5,50.8,29.80,WSW,248,0.0,4.8,61,0.00,,BKN042,0.00,VWS V14.01,2013-10-15 19:07:00,
2013-10-15 14:08:00,64.4,50.7,29.80,WSW,248,1.6,4.8,61,0.00,,BKN042,0.00,VWS V14.01,2013-10-15 19:08:00,
2013-10-15 14:10:00,64.5,50.8,29.80,West,270,4.8,4.8,61,0.00,,BKN042,0.00,VWS V14.01,2013-10-15 19:10:00,
2013-10-15 14:12:00,64.0,50.3,29.80,WSW,248,6.2,6.6,61,0.00,,BKN042,0.00,VWS V14.01,2013-10-15 19:12:00,
2013-10-15 14:17:00,64.2,50.5,29.80,West,270,2.6,6.6,61,0.00,,BKN042,0.00,VWS V14.01,2013-10-15 19:17:00,
2013-10-15 14:18:00,64.2,50.5,29.80,SW,225,4.8,4.8,61,0.00,,BKN042,0.00,VWS V14.01,2013-10-15 19:18:00,
2013-10-15 14:20:00,64.5,50.3,29.80,SW,225,0.0,4.8,60,0.00,,BKN042,0.00,VWS V14.01,2013-10-15 19:20:00,
2013-10-15 14:22:00,65.1,50.9,29.80,West,270,3.4,3.4,60,0.00,,BKN042,0.00,VWS V14.01,2013-10-15 19:22:00,
2013-10-15 14:23:00,65.4,50.2,29.80,WSW,248,1.6,3.4,58,0.00,,BKN042,0.00,VWS V14.01,2013-10-15 19:23:00,
2013-10-15 14:25:00,65.8,50.2,29.80,WNW,292,14.2,14.2,57,0.00,,BKN042,0.00,VWS V14.01,2013-10-15 19:25:00,
2013-10-15 14:26:00,65.8,49.7,29.80,West,270,6.6,6.6,56,0.00,,BKN042,0.00,VWS V14.01,2013-10-15 19:26:00,
2013-10-15 14:28:00,65.6,48.5,29.80,West,270,4.0,6.6,54,0.00,,BKN042,0.00,VWS V14.01,2013-10-15 19:28:00,
2013-10-15 14:30:00,65.4,47.3,29.80,WNW,292,10.6,10.6,52,0.00,,BKN042,0.00,VWS V14.01,2013-10-15 19:30:00,
2013-10-15 14:31:00,65.4,47.3,29.80,WSW,248,1.6,10.6,52,0.00,,BKN042,0.00,VWS V14.01,2013-10-15 19:31:00,
2013-10-15 14:33:00,65.3,47.2,29.80,West,270,8.0,8.0,52,0.00,,BKN042,0.00,VWS V14.01,2013-10-15 19:33:00,
2013-10-15 14:34:00,65.3,46.7,29.80,West,270,0.0,8.0,51,0.00,,BKN042,0.00,VWS V14.01,2013-10-15 19:34:00,
2013-10-15 14:36:00,65.1,47.1,29.80,WSW,248,11.0,11.0,52,0.00,,BKN042,0.00,VWS V14.01,2013-10-15 19:36:00,
2013-10-15 14:38:00,65.1,47.1,29.80,West,270,8.0,11.0,52,0.00,,BKN042,0.00,VWS V14.01,2013-10-15 19:38:00,
2013-10-15 14:39:00,65.1,47.1,29.80,WSW,248,2.6,8.0,52,0.00,,BKN042,0.00,VWS V14.01,2013-10-15 19:39:00,
2013-10-15 14:41:00,64.9,46.9,29.80,West,270,4.8,4.8,52,0.00,,OVC037,0.00,VWS V14.01,2013-10-15 19:41:00,
2013-10-15 14:42:00,65.1,47.1,29.80,West,270,3.4,4.8,52,0.00,,OVC037,0.00,VWS V14.01,2013-10-15 19:42:00,
2013-10-15 14:43:00,64.9,46.9,29.80,WSW,248,3.4,3.4,52,0.00,,OVC037,0.00,VWS V14.01,2013-10-15 19:43:00,
2013-10-15 14:44:00,64.7,46.7,29.80,West,270,2.6,3.4,52,0.00,,OVC037,0.00,VWS V14.01,2013-10-15 19:44:00,
2013-10-15 14:45:00,65.1,47.1,29.80,WSW,248,4.8,4.8,52,0.00,,OVC037,0.00,VWS V14.01,2013-10-15 19:45:00,
2013-10-15 14:46:00,65.1,47.1,29.80,WSW,248,5.2,5.2,52,0.00,,OVC037,0.00,VWS V14.01,2013-10-15 19:46:00,
2013-10-15 14:48:00,65.1,46.0,29.80,SW,225,5.2,6.2,50,0.00,,OVC037,0.00,VWS V14.01,2013-10-15 19:48:00,
2013-10-15 14:49:00,65.3,45.7,29.80,West,270,6.6,6.6,49,0.00,,OVC037,0.00,VWS V14.01,2013-10-15 19:49:00,
2013-10-15 14:51:00,65.3,44.6,29.80,West,270,11.0,11.0,47,0.00,,BKN034,0.00,VWS V14.01,2013-10-15 19:51:00,
2013-10-15 14:54:00,65.1,43.3,29.80,WSW,248,11.6,11.6,45,0.00,,BKN034,0.00,VWS V14.01,2013-10-15 19:54:00,
2013-10-15 14:56:00,64.9,42.5,29.81,West,270,5.2,5.2,44,0.00,,BKN034,0.00,VWS V14.01,2013-10-15 19:56:00,
2013-10-15 14:57:00,64.9,42.5,29.80,WSW,248,8.4,8.4,44,0.00,,BKN034,0.00,VWS V14.01,2013-10-15 19:57:00,
2013-10-15 14:58:00,64.7,41.7,29.80,South,180,8.0,8.4,43,0.00,,BKN034,0.00,VWS V14.01,2013-10-15 19:58:00,
2013-10-15 14:59:00,64.7,41.7,29.80,West,270,7.6,8.0,43,0.00,,BKN034,0.00,VWS V14.01,2013-10-15 19:59:00,
2013-10-15 15:02:00,64.5,41.5,29.80,WNW,292,0.0,0.0,43,0.00,,BKN034,0.00,VWS V14.01,2013-10-15 20:02:00,
2013-10-15 15:04:00,64.7,42.3,29.80,West,270,5.2,5.2,44,0.00,,BKN034,0.00,VWS V14.01,2013-10-15 20:04:00,
2013-10-15 15:05:00,64.7,42.3,29.80,West,270,2.2,5.2,44,0.00,,BKN034,0.00,VWS V14.01,2013-10-15 20:05:00,
2013-10-15 15:07:00,64.9,42.5,29.80,SSW,202,3.4,7.6,44,0.00,,BKN034,0.00,VWS V14.01,2013-10-15 20:07:00,
2013-10-15 15:08:00,65.1,42.7,29.80,West,270,13.4,13.4,44,0.00,,BKN034,0.00,VWS V14.01,2013-10-15 20:08:00,
2013-10-15 15:12:00,64.7,41.7,29.80,WSW,248,7.0,7.0,43,0.00,,BKN034,0.00,VWS V14.01,2013-10-15 20:12:00,
2013-10-15 15:13:00,64.7,41.7,29.80,SW,225,6.6,7.0,43,0.00,,BKN034,0.00,VWS V14.01,2013-10-15 20:13:00,
2013-10-15 15:14:00,64.9,41.9,29.80,WSW,248,4.4,7.0,43,0.00,,BKN034,0.00,VWS V14.01,2013-10-15 20:14:00,
2013-10-15 15:15:00,64.9,41.3,29.80,West,270,10.6,10.6,42,0.00,,BKN034,0.00,VWS V14.01,2013-10-15 20:15:00,
2013-10-15 15:16:00,64.7,40.5,29.80,West,270,7.0,7.0,41,0.00,,BKN034,0.00,VWS V14.01,2013-10-15 20:16:00,
2013-10-15 15:17:00,64.7,40.5,29.80,West,270,5.8,7.0,41,0.00,,BKN034,0.00,VWS V14.01,2013-10-15 20:17:00,
2013-10-15 15:19:00,64.7,40.5,29.80,West,270,9.2,9.2,41,0.00,,BKN034,0.00,VWS V14.01,2013-10-15 20:19:00,
2013-10-15 15:20:00,64.7,40.5,29.80,West,270,6.6,9.2,41,0.00,,BKN034,0.00,VWS V14.01,2013-10-15 20:20:00,
2013-10-15 15:22:00,64.7,40.5,29.80,SSW,202,4.8,4.8,41,0.00,,BKN034,0.00,VWS V14.01,2013-10-15 20:22:00,
2013-10-15 15:24:00,64.9,40.7,29.80,SE,135,0.0,0.0,41,0.00,,BKN034,0.00,VWS V14.01,2013-10-15 20:24:00,
2013-10-15 15:26:00,64.9,40.7,29.80,WSW,248,4.4,4.4,41,0.00,,BKN034,0.00,VWS V14.01,2013-10-15 20:26:00,
2013-10-15 15:27:00,65.1,40.8,29.80,West,270,4.8,4.8,41,0.00,,BKN034,0.00,VWS V14.01,2013-10-15 20:27:00,
2013-10-15 15:30:00,64.9,40.7,29.80,SSW,202,4.4,4.8,41,0.00,,BKN034,0.00,VWS V14.01,2013-10-15 20:30:00,
2013-10-15 15:32:00,65.1,40.8,29.80,West,270,5.2,5.2,41,0.00,,BKN034,0.00,VWS V14.01,2013-10-15 20:32:00,
2013-10-15 15:34:00,65.1,40.2,29.80,WSW,248,4.0,12.0,40,0.00,,BKN034,0.00,VWS V14.01,2013-10-15 20:34:00,
2013-10-15 15:35:00,65.1,40.8,29.80,WSW,248,4.8,4.8,41,0.00,,BKN034,0.00,VWS V14.01,2013-10-15 20:35:00,
2013-10-15 15:36:00,64.9,40.7,29.80,WSW,248,2.6,4.8,41,0.00,,BKN034,0.00,VWS V14.01,2013-10-15 20:36:00,
2013-10-15 15:38:00,65.1,40.8,29.80,West,270,4.0,4.0,41,0.00,,BKN034,0.00,VWS V14.01,2013-10-15 20:38:00,
2013-10-15 15:39:00,64.9,40.7,29.80,SSW,202,5.8,5.8,41,0.00,,BKN034,0.00,VWS V14.01,2013-10-15 20:39:00,
2013-10-15 15:42:00,64.7,40.5,29.81,WNW,292,8.8,8.8,41,0.00,,BKN034,0.00,VWS V14.01,2013-10-15 20:42:00,
2013-10-15 15:43:00,64.5,40.3,29.81,West,270,4.0,8.8,41,0.00,,BKN034,0.00,VWS V14.01,2013-10-15 20:43:00,
2013-10-15 15:45:00,64.5,40.3,29.81,West,270,4.8,7.0,41,0.00,,BKN034,0.00,VWS V14.01,2013-10-15 20:45:00,
2013-10-15 15:46:00,64.5,40.3,29.81,WSW,248,3.0,7.0,41,0.00,,BKN034,0.00,VWS V14.01,2013-10-15 20:46:00,
2013-10-15 15:47:00,64.5,40.3,29.81,WSW,248,7.6,7.6,41,0.00,,BKN034,0.00,VWS V14.01,2013-10-15 20:47:00,
2013-10-15 15:48:00,64.5,40.3,29.80,West,270,5.2,7.6,41,0.00,,BKN034,0.00,VWS V14.01,2013-10-15 20:48:00,
2013-10-15 15:52:00,64.7,40.5,29.81,West,270,8.8,8.8,41,0.00,,SCT034,0.00,VWS V14.01,2013-10-15 20:52:00,
2013-10-15 15:53:00,64.5,40.3,29.81,West,270,7.0,8.8,41,0.00,,SCT034,0.00,VWS V14.01,2013-10-15 20:53:00,
2013-10-15 15:54:00,64.5,40.3,29.81,WSW,248,4.8,8.8,41,0.00,,SCT034,0.00,VWS V14.01,2013-10-15 20:54:00,
2013-10-15 15:56:00,64.7,40.5,29.81,WSW,248,0.0,4.8,41,0.00,,SCT034,0.00,VWS V14.01,2013-10-15 20:56:00,
2013-10-15 15:58:00,64.9,40.7,29.81,WSW,248,3.0,3.0,41,0.00,,SCT034,0.00,VWS V14.01,2013-10-15 20:58:00,
2013-10-15 15:59:00,65.1,40.2,29.81,WNW,292,5.8,5.8,40,0.00,,SCT034,0.00,VWS V14.01,2013-10-15 20:59:00,
2013-10-15 16:00:00,64.9,40.0,29.81,WSW,248,10.6,10.6,40,0.00,,SCT034,0.00,VWS V14.01,2013-10-15 21:00:00,
2013-10-15 16:02:00,64.5,38.3,29.81,West,270,8.0,10.6,38,0.00,,SCT034,0.00,VWS V14.01,2013-10-15 21:02:00,
2013-10-15 16:05:00,64.0,37.9,29.81,WSW,248,4.8,4.8,38,0.00,,SCT034,0.00,VWS V14.01,2013-10-15 21:05:00,
2013-10-15 16:07:00,63.8,37.7,29.82,West,270,6.2,6.2,38,0.00,,SCT034,0.00,VWS V14.01,2013-10-15 21:07:00,
2013-10-15 16:09:00,63.8,37.7,29.82,NW,315,8.0,8.0,38,0.00,,SCT034,0.00,VWS V14.01,2013-10-15 21:09:00,
2013-10-15 16:10:00,63.8,37.7,29.82,WNW,292,6.2,8.0,38,0.00,,SCT034,0.00,VWS V14.01,2013-10-15 21:10:00,
2013-10-15 16:11:00,63.8,37.7,29.82,WNW,292,6.2,6.2,38,0.00,,SCT034,0.00,VWS V14.01,2013-10-15 21:11:00,
2013-10-15 16:12:00,63.8,37.7,29.81,West,270,4.8,6.2,38,0.00,,SCT034,0.00,VWS V14.01,2013-10-15 21:12:00,
2013-10-15 16:14:00,63.8,37.7,29.82,West,270,8.4,8.4,38,0.00,,SCT034,0.00,VWS V14.01,2013-10-15 21:14:00,
2013-10-15 16:15:00,63.8,37.7,29.82,West,270,8.4,8.4,38,0.00,,SCT034,0.00,VWS V14.01,2013-10-15 21:15:00,
2013-10-15 16:18:00,63.6,37.5,29.82,West,270,2.2,2.6,38,0.00,,SCT034,0.00,VWS V14.01,2013-10-15 21:18:00,
2013-10-15 16:20:00,63.8,37.7,29.82,West,270,2.2,2.2,38,0.00,,SCT034,0.00,VWS V14.01,2013-10-15 21:20:00,
2013-10-15 16:22:00,64.0,37.9,29.82,WSW,248,12.8,12.8,38,0.00,,SCT034,0.00,VWS V14.01,2013-10-15 21:22:00,
2013-10-15 16:23:00,64.0,37.9,29.82,WSW,248,12.8,12.8,38,0.00,,SCT034,0.00,VWS V14.01,2013-10-15 21:23:00,
2013-10-15 16:24:00,64.0,37.9,29.82,West,270,4.8,12.8,38,0.00,,SCT034,0.00,VWS V14.01,2013-10-15 21:24:00,
2013-10-15 16:25:00,63.8,37.7,29.82,West,270,3.4,3.4,38,0.00,,SCT034,0.00,VWS V14.01,2013-10-15 21:25:00,
2013-10-15 16:28:00,63.5,37.5,29.82,West,270,7.6,7.6,38,0.00,,SCT034,0.00,VWS V14.01,2013-10-15 21:28:00,
2013-10-15 16:29:00,63.5,37.5,29.82,WSW,248,4.0,4.0,38,0.00,,SCT034,0.00,VWS V14.01,2013-10-15 21:29:00,
2013-10-15 16:30:00,63.5,37.5,29.82,West,270,4.4,4.4,38,0.00,,SCT034,0.00,VWS V14.01,2013-10-15 21:30:00,
2013-10-15 16:33:00,63.3,38.0,29.82,WSW,248,14.2,14.2,39,0.00,,SCT034,0.00,VWS V14.01,2013-10-15 21:33:00,
2013-10-15 16:34:00,62.9,36.9,29.82,West,270,5.2,14.2,38,0.00,,SCT034,0.00,VWS V14.01,2013-10-15 21:34:00,
2013-10-15 16:35:00,62.9,36.9,29.82,West,270,5.2,5.2,38,0.00,,SCT034,0.00,VWS V14.01,2013-10-15 21:35:00,
2013-10-15 16:36:00,62.9,36.9,29.82,WSW,248,7.6,7.6,38,0.00,,SCT034,0.00,VWS V14.01,2013-10-15 21:36:00,
2013-10-15 16:38:00,62.7,36.8,29.82,WSW,248,10.2,10.2,38,0.00,,SCT034,0.00,VWS V14.01,2013-10-15 21:38:00,
2013-10-15 16:39:00,62.6,36.7,29.82,West,270,4.4,4.4,38,0.00,,SCT034,0.00,VWS V14.01,2013-10-15 21:39:00,
2013-10-15 16:40:00,62.6,37.3,29.82,West,270,4.0,4.4,39,0.00,,CLR,0.00,VWS V14.01,2013-10-15 21:40:00,
2013-10-15 16:44:00,62.4,37.1,29.83,West,270,3.4,7.6,39,0.00,,CLR,0.00,VWS V14.01,2013-10-15 21:44:00,
2013-10-15 16:45:00,62.6,37.3,29.83,WSW,248,9.8,9.8,39,0.00,,CLR,0.00,VWS V14.01,2013-10-15 21:45:00,
2013-10-15 16:46:00,62.2,37.0,29.83,West,270,5.2,9.8,39,0.00,,CLR,0.00,VWS V14.01,2013-10-15 21:46:00,
2013-10-15 16:47:00,62.2,37.0,29.83,WNW,292,1.2,1.2,39,0.00,,CLR,0.00,VWS V14.01,2013-10-15 21:47:00,
2013-10-15 16:48:00,62.0,36.8,29.83,West,270,7.6,7.6,39,0.00,,CLR,0.00,VWS V14.01,2013-10-15 21:48:00,
2013-10-15 16:49:00,62.0,36.8,29.83,West,270,7.6,7.6,39,0.00,,CLR,0.00,VWS V14.01,2013-10-15 21:49:00,
2013-10-15 16:50:00,62.0,36.8,29.83,West,270,3.0,7.6,39,0.00,,CLR,0.00,VWS V14.01,2013-10-15 21:50:00,
2013-10-15 16:54:00,62.0,36.8,29.83,West,270,8.8,8.8,39,0.00,,CLR,0.00,VWS V14.01,2013-10-15 21:54:00,
2013-10-15 16:56:00,61.8,36.6,29.83,WSW,248,6.2,9.8,39,0.00,,CLR,0.00,VWS V14.01,2013-10-15 21:56:00,
2013-10-15 16:58:00,61.7,36.5,29.83,NNW,338,28.0,28.0,39,0.00,,CLR,0.00,VWS V14.01,2013-10-15 21:58:00,
2013-10-15 17:01:00,61.7,36.5,29.83,West,270,3.4,3.4,39,0.00,,CLR,0.00,VWS V14.01,2013-10-15 22:01:00,
2013-10-15 17:02:00,61.5,36.3,29.83,West,270,7.0,7.0,39,0.00,,CLR,0.00,VWS V14.01,2013-10-15 22:02:00,
2013-10-15 17:04:00,61.5,36.3,29.83,WSW,248,1.6,7.0,39,0.00,,CLR,0.00,VWS V14.01,2013-10-15 22:04:00,
2013-10-15 17:06:00,61.3,36.2,29.83,West,270,5.8,5.8,39,0.00,,CLR,0.00,VWS V14.01,2013-10-15 22:06:00,
2013-10-15 17:08:00,61.3,35.5,29.83,WNW,292,9.2,9.2,38,0.00,,CLR,0.00,VWS V14.01,2013-10-15 22:08:00,
2013-10-15 17:09:00,61.1,35.3,29.83,WSW,248,4.0,9.2,38,0.00,,CLR,0.00,VWS V14.01,2013-10-15 22:09:00,
2013-10-15 17:11:00,61.1,35.3,29.83,West,270,10.2,10.2,38,0.00,,CLR,0.00,VWS V14.01,2013-10-15 22:11:00,
2013-10-15 17:12:00,61.1,35.3,29.83,WSW,248,5.2,10.2,38,0.00,,CLR,0.00,VWS V14.01,2013-10-15 22:12:00,
2013-10-15 17:16:00,61.1,35.3,29.83,West,270,4.4,8.4,38,0.00,,CLR,0.00,VWS V14.01,2013-10-15 22:16:00,
2013-10-15 17:19:00,60.9,35.1,29.83,West,270,5.2,6.6,38,0.00,,CLR,0.00,VWS V14.01,2013-10-15 22:19:00,
2013-10-15 17:20:00,60.8,35.1,29.83,West,270,4.4,6.6,38,0.00,,CLR,0.00,VWS V14.01,2013-10-15 22:20:00,
2013-10-15 17:21:00,60.9,35.1,29.83,West,270,0.0,4.4,38,0.00,,CLR,0.00,VWS V14.01,2013-10-15 22:21:00,
2013-10-15 17:22:00,60.9,35.8,29.83,West,270,4.0,4.4,39,0.00,,CLR,0.00,VWS V14.01,2013-10-15 22:22:00,
2013-10-15 17:24:00,60.9,35.8,29.83,West,270,5.2,5.8,39,0.00,,CLR,0.00,VWS V14.01,2013-10-15 22:24:00,
2013-10-15 17:25:00,60.8,35.7,29.83,WSW,248,1.6,5.2,39,0.00,,CLR,0.00,VWS V14.01,2013-10-15 22:25:00,
2013-10-15 17:27:00,60.6,35.5,29.83,West,270,7.0,7.0,39,0.00,,CLR,0.00,VWS V14.01,2013-10-15 22:27:00,
2013-10-15 17:28:00,60.4,35.3,29.83,West,270,4.4,4.4,39,0.00,,CLR,0.00,VWS V14.01,2013-10-15 22:28:00,
2013-10-15 17:29:00,60.4,35.3,29.83,West,270,2.6,4.4,39,0.00,,CLR,0.00,VWS V14.01,2013-10-15 22:29:00,
2013-10-15 17:30:00,60.4,35.3,29.83,West,270,1.6,1.6,39,0.00,,CLR,0.00,VWS V14.01,2013-10-15 22:30:00,
2013-10-15 17:32:00,60.2,35.2,29.83,WNW,292,9.2,9.2,39,0.00,,CLR,0.00,VWS V14.01,2013-10-15 22:32:00,
2013-10-15 17:34:00,60.2,35.2,29.84,SW,225,3.4,9.2,39,0.00,,CLR,0.00,VWS V14.01,2013-10-15 22:34:00,
2013-10-15 17:35:00,59.9,34.9,29.83,West,270,4.8,4.8,39,0.00,,CLR,0.00,VWS V14.01,2013-10-15 22:35:00,
2013-10-15 17:37:00,59.9,34.9,29.83,WSW,248,6.2,6.2,39,0.00,,CLR,0.00,VWS V14.01,2013-10-15 22:37:00,
2013-10-15 17:38:00,59.7,34.7,29.84,WSW,248,8.4,8.4,39,0.00,,CLR,0.00,VWS V14.01,2013-10-15 22:38:00,
2013-10-15 17:40:00,59.7,35.4,29.84,West,270,4.0,8.4,40,0.00,,CLR,0.00,VWS V14.01,2013-10-15 22:40:00,
2013-10-15 17:42:00,59.7,35.4,29.84,West,270,4.8,4.8,40,0.00,,CLR,0.00,VWS V14.01,2013-10-15 22:42:00,
2013-10-15 17:43:00,59.7,35.4,29.84,West,270,4.8,4.8,40,0.00,,CLR,0.00,VWS V14.01,2013-10-15 22:43:00,
2013-10-15 17:46:00,59.5,35.2,29.84,West,270,4.8,4.8,40,0.00,,CLR,0.00,VWS V14.01,2013-10-15 22:46:00,
2013-10-15 17:47:00,59.3,35.0,29.83,WNW,292,0.0,4.8,40,0.00,,CLR,0.00,VWS V14.01,2013-10-15 22:47:00,
2013-10-15 17:49:00,59.5,35.8,29.84,West,270,4.8,5.2,41,0.00,,CLR,0.00,VWS V14.01,2013-10-15 22:49:00,
2013-10-15 17:50:00,59.3,35.6,29.84,WSW,248,4.4,4.4,41,0.00,,CLR,0.00,VWS V14.01,2013-10-15 22:50:00,
2013-10-15 17:51:00,59.3,35.0,29.84,West,270,4.0,4.4,40,0.00,,CLR,0.00,VWS V14.01,2013-10-15 22:51:00,
2013-10-15 17:52:00,59.1,35.4,29.84,West,270,4.8,4.8,41,0.00,,CLR,0.00,VWS V14.01,2013-10-15 22:52:00,
2013-10-15 17:55:00,59.1,35.4,29.84,West,270,0.0,0.0,41,0.00,,CLR,0.00,VWS V14.01,2013-10-15 22:55:00,
2013-10-15 17:56:00,59.1,35.4,29.84,WNW,292,7.0,7.0,41,0.00,,CLR,0.00,VWS V14.01,2013-10-15 22:56:00,
2013-10-15 17:57:00,59.1,35.4,29.84,West,270,2.6,7.0,41,0.00,,CLR,0.00,VWS V14.01,2013-10-15 22:57:00,
2013-10-15 17:58:00,59.1,35.4,29.84,West,270,4.8,7.0,41,0.00,,CLR,0.00,VWS V14.01,2013-10-15 22:58:00,
2013-10-15 18:00:00,58.8,35.2,29.84,West,270,3.4,3.4,41,0.00,,CLR,0.00,VWS V14.01,2013-10-15 23:00:00,
2013-10-15 18:02:00,58.6,35.0,29.84,West,270,0.0,3.4,41,0.00,,CLR,0.00,VWS V14.01,2013-10-15 23:02:00,
2013-10-15 18:04:00,58.6,35.0,29.85,West,270,4.0,4.0,41,0.00,,CLR,0.00,VWS V14.01,2013-10-15 23:04:00,
2013-10-15 18:06:00,58.4,34.8,29.84,West,270,2.2,2.2,41,0.00,,CLR,0.00,VWS V14.01,2013-10-15 23:06:00,
2013-10-15 18:07:00,58.4,34.8,29.85,West,270,5.2,5.2,41,0.00,,CLR,0.00,VWS V14.01,2013-10-15 23:07:00,
2013-10-15 18:09:00,58.1,34.5,29.85,West,270,6.6,6.6,41,0.00,,CLR,0.00,VWS V14.01,2013-10-15 23:09:00,
2013-10-15 18:10:00,58.1,34.5,29.85,West,270,6.6,6.6,41,0.00,,CLR,0.00,VWS V14.01,2013-10-15 23:10:00,
2013-10-15 18:12:00,58.1,34.5,29.85,West,270,8.0,8.0,41,0.00,,CLR,0.00,VWS V14.01,2013-10-15 23:12:00,
2013-10-15 18:14:00,57.9,35.0,29.85,WSW,248,0.0,0.0,42,0.00,,CLR,0.00,VWS V14.01,2013-10-15 23:14:00,
2013-10-15 18:15:00,57.9,35.6,29.85,WSW,248,0.0,0.0,43,0.00,,CLR,0.00,VWS V14.01,2013-10-15 23:15:00,
2013-10-15 18:16:00,57.9,35.6,29.85,WSW,248,0.0,0.0,43,0.00,,CLR,0.00,VWS V14.01,2013-10-15 23:16:00,
2013-10-15 18:18:00,57.9,35.6,29.85,WSW,248,2.6,2.6,43,0.00,,CLR,0.00,VWS V14.01,2013-10-15 23:18:00,
2013-10-15 18:20:00,57.7,35.4,29.85,West,270,5.2,5.2,43,0.00,,CLR,0.00,VWS V14.01,2013-10-15 23:20:00,
2013-10-15 18:21:00,57.7,35.4,29.85,West,270,4.0,5.2,43,0.00,,CLR,0.00,VWS V14.01,2013-10-15 23:21:00,
2013-10-15 18:22:00,57.5,35.2,29.85,West,270,0.0,5.2,43,0.00,,CLR,0.00,VWS V14.01,2013-10-15 23:22:00,
2013-10-15 18:25:00,57.5,35.2,29.85,West,270,0.0,0.0,43,0.00,,CLR,0.00,VWS V14.01,2013-10-15 23:25:00,
2013-10-15 18:26:00,57.3,35.0,29.85,West,270,0.0,3.4,43,0.00,,CLR,0.00,VWS V14.01,2013-10-15 23:26:00,
2013-10-15 18:28:00,57.3,35.6,29.85,West,270,0.0,0.0,44,0.00,,CLR,0.00,VWS V14.01,2013-10-15 23:28:00,
2013-10-15 18:30:00,57.3,35.6,29.85,West,270,0.0,4.8,44,0.00,,CLR,0.00,VWS V14.01,2013-10-15 23:30:00,
2013-10-15 18:33:00,57.0,35.3,29.85,West,270,2.6,2.6,44,0.00,,CLR,0.00,VWS V14.01,2013-10-15 23:33:00,
2013-10-15 18:35:00,57.0,35.3,29.85,West,270,0.0,0.0,44,0.00,,CLR,0.00,VWS V14.01,2013-10-15 23:35:00,
2013-10-15 18:37:00,56.8,35.1,29.86,West,270,3.4,3.4,44,0.00,,CLR,0.00,VWS V14.01,2013-10-15 23:37:00,
2013-10-15 18:38:00,56.8,35.1,29.85,West,270,0.0,3.4,44,0.00,,CLR,0.00,VWS V14.01,2013-10-15 23:38:00,
2013-10-15 18:39:00,56.6,35.0,29.86,West,270,3.0,3.0,44,0.00,,CLR,0.00,VWS V14.01,2013-10-15 23:39:00,
2013-10-15 18:42:00,56.6,35.0,29.86,West,270,0.0,2.2,44,0.00,,CLR,0.00,VWS V14.01,2013-10-15 23:42:00,
2013-10-15 18:43:00,56.6,35.0,29.86,West,270,0.0,0.0,44,0.00,,CLR,0.00,VWS V14.01,2013-10-15 23:43:00,
2013-10-15 18:44:00,56.6,35.0,29.86,West,270,1.6,1.6,44,0.00,,CLR,0.00,VWS V14.01,2013-10-15 23:44:00,
2013-10-15 18:46:00,56.6,35.5,29.86,West,270,5.2,5.2,45,0.00,,CLR,0.00,VWS V14.01,2013-10-15 23:46:00,
2013-10-15 18:50:00,56.4,35.3,29.86,West,270,0.0,4.0,45,0.00,,CLR,0.00,VWS V14.01,2013-10-15 23:50:00,
2013-10-15 18:52:00,56.3,35.2,29.86,West,270,1.6,1.6,45,0.00,,CLR,0.00,VWS V14.01,2013-10-15 23:52:00,
2013-10-15 18:53:00,56.3,35.2,29.86,West,270,5.8,5.8,45,0.00,,CLR,0.00,VWS V14.01,2013-10-15 23:53:00,
2013-10-15 18:54:00,56.3,35.2,29.86,West,270,0.0,5.8,45,0.00,,CLR,0.00,VWS V14.01,2013-10-15 23:54:00,
2013-10-15 18:56:00,56.3,35.2,29.86,West,270,0.0,0.0,45,0.00,,CLR,0.00,VWS V14.01,2013-10-15 23:56:00,
2013-10-15 18:58:00,56.3,35.2,29.86,WSW,248,5.8,5.8,45,0.00,,CLR,0.00,VWS V14.01,2013-10-15 23:58:00,
2013-10-15 18:59:00,56.3,35.2,29.86,West,270,0.0,0.0,45,0.00,,CLR,0.00,VWS V14.01,2013-10-15 23:59:00,
2013-10-15 19:02:00,56.3,35.2,29.86,West,270,0.0,3.0,45,0.00,,CLR,0.00,VWS V14.01,2013-10-16 00:02:00,
2013-10-15 19:04:00,56.1,35.6,29.86,West,270,4.0,4.0,46,0.00,,CLR,0.00,VWS V14.01,2013-10-16 00:04:00,
2013-10-15 19:06:00,56.3,35.8,29.87,West,270,0.0,3.0,46,0.00,,CLR,0.00,VWS V14.01,2013-10-16 00:06:00,
2013-10-15 19:08:00,56.1,35.6,29.86,West,270,2.2,2.2,46,0.00,,CLR,0.00,VWS V14.01,2013-10-16 00:08:00,
2013-10-15 19:10:00,56.3,35.8,29.86,West,270,0.0,2.2,46,0.00,,CLR,0.00,VWS V14.01,2013-10-16 00:10:00,
2013-10-15 19:11:00,56.1,35.6,29.87,West,270,0.0,0.0,46,0.00,,CLR,0.00,VWS V14.01,2013-10-16 00:11:00,
2013-10-15 19:14:00,56.1,36.2,29.87,West,270,0.0,3.4,47,0.00,,CLR,0.00,VWS V14.01,2013-10-16 00:14:00,
2013-10-15 19:15:00,56.1,36.2,29.87,West,270,0.0,0.0,47,0.00,,CLR,0.00,VWS V14.01,2013-10-16 00:15:00,
2013-10-15 19:16:00,56.1,36.2,29.87,West,270,4.0,4.0,47,0.00,,CLR,0.00,VWS V14.01,2013-10-16 00:16:00,
2013-10-15 19:18:00,56.1,36.2,29.87,West,270,2.2,8.0,47,0.00,,CLR,0.00,VWS V14.01,2013-10-16 00:18:00,
2013-10-15 19:20:00,56.1,36.2,29.88,West,270,0.0,2.2,47,0.00,,CLR,0.00,VWS V14.01,2013-10-16 00:20:00,
2013-10-15 19:22:00,55.9,36.0,29.88,West,270,5.2,5.2,47,0.00,,CLR,0.00,VWS V14.01,2013-10-16 00:22:00,
2013-10-15 19:23:00,55.9,36.0,29.88,West,270,4.0,5.2,47,0.00,,CLR,0.00,VWS V14.01,2013-10-16 00:23:00,
2013-10-15 19:24:00,55.7,35.8,29.87,West,270,0.0,0.0,47,0.00,,CLR,0.00,VWS V14.01,2013-10-16 00:24:00,
2013-10-15 19:25:00,55.7,35.8,29.87,WNW,292,6.6,6.6,47,0.00,,CLR,0.00,VWS V14.01,2013-10-16 00:25:00,
2013-10-15 19:26:00,55.7,35.8,29.88,NW,315,3.0,6.6,47,0.00,,CLR,0.00,VWS V14.01,2013-10-16 00:26:00,
2013-10-15 19:27:00,55.7,35.8,29.87,WNW,292,8.8,8.8,47,0.00,,CLR,0.00,VWS V14.01,2013-10-16 00:27:00,
2013-10-15 19:30:00,55.5,35.6,29.88,WNW,292,0.0,6.2,47,0.00,,CLR,0.00,VWS V14.01,2013-10-16 00:30:00,
2013-10-15 19:32:00,55.4,35.5,29.87,WSW,248,3.0,3.0,47,0.00,,CLR,0.00,VWS V14.01,2013-10-16 00:32:00,
2013-10-15 19:33:00,55.4,35.5,29.88,WNW,292,3.0,3.0,47,0.00,,CLR,0.00,VWS V14.01,2013-10-16 00:33:00,
2013-10-15 19:34:00,55.2,35.3,29.88,WNW,292,3.0,3.0,47,0.00,,CLR,0.00,VWS V14.01,2013-10-16 00:34:00,
2013-10-15 19:35:00,55.0,35.2,29.88,West,270,3.0,3.0,47,0.00,,CLR,0.00,VWS V14.01,2013-10-16 00:35:00,
2013-10-15 19:38:00,55.0,35.2,29.88,West,270,7.0,7.0,47,0.00,,CLR,0.00,VWS V14.01,2013-10-16 00:38:00,
2013-10-15 19:40:00,54.8,35.0,29.88,WNW,292,3.4,7.0,47,0.00,,CLR,0.00,VWS V14.01,2013-10-16 00:40:00,
2013-10-15 19:42:00,54.8,35.0,29.88,WNW,292,6.2,6.2,47,0.00,,CLR,0.00,VWS V14.01,2013-10-16 00:42:00,
2013-10-15 19:44:00,54.5,35.2,29.88,WNW,292,4.0,6.2,48,0.00,,CLR,0.00,VWS V14.01,2013-10-16 00:44:00,
2013-10-15 19:46:00,54.3,35.0,29.88,WSW,248,5.8,5.8,48,0.00,,CLR,0.00,VWS V14.01,2013-10-16 00:46:00,
2013-10-15 19:47:00,54.3,35.0,29.88,West,270,4.0,5.8,48,0.00,,CLR,0.00,VWS V14.01,2013-10-16 00:47:00,
2013-10-15 19:48:00,54.3,35.0,29.88,WNW,292,2.6,5.8,48,0.00,,CLR,0.00,VWS V14.01,2013-10-16 00:48:00,
2013-10-15 19:50:00,53.9,34.7,29.88,West,270,3.0,4.8,48,0.00,,CLR,0.00,VWS V14.01,2013-10-16 00:50:00,
2013-10-15 19:52:00,53.9,35.2,29.88,West,270,0.0,0.0,49,0.00,,CLR,0.00,VWS V14.01,2013-10-16 00:52:00,
2013-10-15 19:53:00,53.9,35.2,29.88,West,270,4.0,4.0,49,0.00,,CLR,0.00,VWS V14.01,2013-10-16 00:53:00,
2013-10-15 19:54:00,53.7,35.0,29.88,West,270,5.8,5.8,49,0.00,,CLR,0.00,VWS V14.01,2013-10-16 00:54:00,
2013-10-15 19:56:00,53.7,35.0,29.88,WNW,292,3.4,7.6,49,0.00,,CLR,0.00,VWS V14.01,2013-10-16 00:56:00,
2013-10-15 19:57:00,53.6,34.9,29.89,West,270,2.6,3.4,49,0.00,,CLR,0.00,VWS V14.01,2013-10-16 00:57:00,
2013-10-15 19:58:00,53.6,34.9,29.88,WSW,248,6.6,6.6,49,0.00,,CLR,0.00,VWS V14.01,2013-10-16 00:58:00,
2013-10-15 20:00:00,53.4,35.2,29.89,West,270,5.8,6.6,50,0.00,,CLR,0.00,VWS V14.01,2013-10-16 01:00:00,
2013-10-15 20:03:00,53.2,35.1,29.89,West,270,5.2,5.2,50,0.00,,CLR,0.00,VWS V14.01,2013-10-16 01:03:00,
2013-10-15 20:04:00,53.2,35.1,29.89,West,270,4.0,4.0,50,0.00,,CLR,0.00,VWS V14.01,2013-10-16 01:04:00,
2013-10-15 20:06:00,52.8,34.7,29.89,West,270,2.6,2.6,50,0.00,,CLR,0.00,VWS V14.01,2013-10-16 01:06:00,
2013-10-15 20:07:00,53.0,35.4,29.89,West,270,6.2,6.2,51,0.00,,CLR,0.00,VWS V14.01,2013-10-16 01:07:00,
2013-10-15 20:08:00,52.8,35.2,29.89,West,270,4.0,4.0,51,0.00,,CLR,0.00,VWS V14.01,2013-10-16 01:08:00,
2013-10-15 20:10:00,52.7,35.1,29.89,West,270,3.4,5.8,51,0.00,,CLR,0.00,VWS V14.01,2013-10-16 01:10:00,
2013-10-15 20:12:00,52.7,35.1,29.89,West,270,2.6,3.4,51,0.00,,CLR,0.00,VWS V14.01,2013-10-16 01:12:00,
2013-10-15 20:13:00,52.7,35.1,29.89,West,270,0.0,2.6,51,0.00,,CLR,0.00,VWS V14.01,2013-10-16 01:13:00,
2013-10-15 20:14:00,52.5,35.4,29.89,WSW,248,0.0,2.6,52,0.00,,CLR,0.00,VWS V14.01,2013-10-16 01:14:00,
2013-10-15 20:15:00,52.5,35.9,29.89,WSW,248,0.0,0.0,53,0.00,,CLR,0.00,VWS V14.01,2013-10-16 01:15:00,
2013-10-15 20:16:00,52.5,35.9,29.89,West,270,0.0,0.0,53,0.00,,CLR,0.00,VWS V14.01,2013-10-16 01:16:00,
2013-10-15 20:19:00,52.3,35.7,29.89,West,270,0.0,2.2,53,0.00,,CLR,0.00,VWS V14.01,2013-10-16 01:19:00,
2013-10-15 20:20:00,52.1,35.5,29.89,West,270,1.6,2.2,53,0.00,,CLR,0.00,VWS V14.01,2013-10-16 01:20:00,
2013-10-15 20:21:00,52.1,35.5,29.89,West,270,4.4,4.4,53,0.00,,CLR,0.00,VWS V14.01,2013-10-16 01:21:00,
2013-10-15 20:24:00,51.9,35.8,29.89,WSW,248,2.6,2.6,54,0.00,,CLR,0.00,VWS V14.01,2013-10-16 01:24:00,
2013-10-15 20:26:00,51.9,35.8,29.89,West,270,0.0,3.0,54,0.00,,CLR,0.00,VWS V14.01,2013-10-16 01:26:00,
2013-10-15 20:27:00,51.9,35.8,29.89,West,270,2.6,2.6,54,0.00,,CLR,0.00,VWS V14.01,2013-10-16 01:27:00,
2013-10-15 20:28:00,51.9,35.8,29.89,WNW,292,4.0,4.0,54,0.00,,CLR,0.00,VWS V14.01,2013-10-16 01:28:00,
2013-10-15 20:30:00,51.9,35.8,29.89,West,270,3.0,4.8,54,0.00,,CLR,0.00,VWS V14.01,2013-10-16 01:30:00,
2013-10-15 20:31:00,51.9,35.8,29.89,WSW,248,2.2,3.0,54,0.00,,CLR,0.00,VWS V14.01,2013-10-16 01:31:00,
2013-10-15 20:33:00,51.9,35.8,29.89,West,270,4.0,6.2,54,0.00,,CLR,0.00,VWS V14.01,2013-10-16 01:33:00,
2013-10-15 20:34:00,51.9,35.8,29.89,West,270,0.0,6.2,54,0.00,,CLR,0.00,VWS V14.01,2013-10-16 01:34:00,
2013-10-15 20:35:00,51.9,36.3,29.89,West,270,2.2,2.2,55,0.00,,CLR,0.00,VWS V14.01,2013-10-16 01:35:00,
2013-10-15 20:36:00,51.9,36.3,29.89,West,270,4.8,4.8,55,0.00,,CLR,0.00,VWS V14.01,2013-10-16 01:36:00,
2013-10-15 20:39:00,51.8,36.2,29.90,WNW,292,4.8,4.8,55,0.00,,CLR,0.00,VWS V14.01,2013-10-16 01:39:00,
2013-10-15 20:40:00,51.6,36.0,29.89,West,270,5.8,5.8,55,0.00,,BKN047,0.00,VWS V14.01,2013-10-16 01:40:00,
2013-10-15 20:43:00,51.6,36.0,29.90,West,270,3.4,3.4,55,0.00,,BKN047,0.00,VWS V14.01,2013-10-16 01:43:00,
2013-10-15 20:45:00,51.6,36.0,29.89,West,270,0.0,0.0,55,0.00,,BKN047,0.00,VWS V14.01,2013-10-16 01:45:00,
2013-10-15 20:48:00,51.4,35.8,29.89,WSW,248,3.4,3.4,55,0.00,,BKN047,0.00,VWS V14.01,2013-10-16 01:48:00,
2013-10-15 20:50:00,51.4,35.8,29.89,WNW,292,6.6,6.6,55,0.00,,BKN047,0.00,VWS V14.01,2013-10-16 01:50:00,
2013-10-15 20:52:00,51.4,35.8,29.89,West,270,2.6,2.6,55,0.00,,BKN047,0.00,VWS V14.01,2013-10-16 01:52:00,
2013-10-15 20:54:00,51.4,35.8,29.89,West,270,0.0,4.8,55,0.00,,BKN047,0.00,VWS V14.01,2013-10-16 01:54:00,
2013-10-15 20:55:00,51.4,35.8,29.89,West,270,3.4,3.4,55,0.00,,BKN047,0.00,VWS V14.01,2013-10-16 01:55:00,
2013-10-15 20:57:00,51.2,35.6,29.89,West,270,3.4,3.4,55,0.00,,BKN047,0.00,VWS V14.01,2013-10-16 01:57:00,
2013-10-15 20:59:00,51.2,35.6,29.89,West,270,0.0,0.0,55,0.00,,BKN047,0.00,VWS V14.01,2013-10-16 01:59:00,
2013-10-15 21:02:00,51.2,35.6,29.89,West,270,2.6,7.6,55,0.00,,BKN047,0.00,VWS V14.01,2013-10-16 02:02:00,
2013-10-15 21:04:00,51.2,35.6,29.89,WSW,248,0.0,2.6,55,0.00,,BKN047,0.00,VWS V14.01,2013-10-16 02:04:00,
2013-10-15 21:06:00,51.2,35.6,29.89,West,270,0.0,4.0,55,0.00,,BKN047,0.00,VWS V14.01,2013-10-16 02:06:00,
2013-10-15 21:08:00,51.0,35.4,29.90,West,270,4.0,6.6,55,0.00,,BKN047,0.00,VWS V14.01,2013-10-16 02:08:00,
2013-10-15 21:10:00,51.0,35.4,29.89,WSW,248,2.6,4.0,55,0.00,,BKN047,0.00,VWS V14.01,2013-10-16 02:10:00,
2013-10-15 21:12:00,51.2,35.6,29.90,WSW,248,5.8,5.8,55,0.00,,BKN047,0.00,VWS V14.01,2013-10-16 02:12:00,
2013-10-15 21:13:00,51.2,35.6,29.90,West,270,3.0,3.0,55,0.00,,BKN047,0.00,VWS V14.01,2013-10-16 02:13:00,
2013-10-15 21:14:00,51.0,35.9,29.89,West,270,5.8,5.8,56,0.00,,BKN047,0.00,VWS V14.01,2013-10-16 02:14:00,
2013-10-15 21:15:00,51.0,35.9,29.89,WSW,248,0.0,0.0,56,0.00,,BKN047,0.00,VWS V14.01,2013-10-16 02:15:00,
2013-10-15 21:16:00,51.0,35.9,29.90,West,270,0.0,3.4,56,0.00,,BKN047,0.00,VWS V14.01,2013-10-16 02:16:00,
2013-10-15 21:18:00,51.0,35.9,29.90,West,270,5.2,5.2,56,0.00,,BKN047,0.00,VWS V14.01,2013-10-16 02:18:00,
2013-10-15 21:19:00,51.0,35.9,29.90,West,270,5.8,5.8,56,0.00,,BKN047,0.00,VWS V14.01,2013-10-16 02:19:00,
2013-10-15 21:20:00,50.9,35.8,29.90,West,270,0.0,5.8,56,0.00,,BKN047,0.00,VWS V14.01,2013-10-16 02:20:00,
2013-10-15 21:21:00,50.9,35.8,29.90,West,270,0.0,0.0,56,0.00,,BKN047,0.00,VWS V14.01,2013-10-16 02:21:00,
2013-10-15 21:22:00,50.9,35.8,29.90,West,270,1.6,1.6,56,0.00,,BKN047,0.00,VWS V14.01,2013-10-16 02:22:00,
2013-10-15 21:24:00,50.9,35.8,29.90,West,270,0.0,0.0,56,0.00,,BKN047,0.00,VWS V14.01,2013-10-16 02:24:00,
2013-10-15 21:26:00,50.9,35.8,29.90,West,270,2.6,2.6,56,0.00,,BKN047,0.00,VWS V14.01,2013-10-16 02:26:00,
2013-10-15 21:27:00,50.9,35.8,29.90,West,270,2.6,2.6,56,0.00,,BKN047,0.00,VWS V14.01,2013-10-16 02:27:00,
2013-10-15 21:28:00,50.9,35.8,29.90,WSW,248,3.4,3.4,56,0.00,,BKN047,0.00,VWS V14.01,2013-10-16 02:28:00,
2013-10-15 21:29:00,50.9,35.8,29.90,WNW,292,4.4,4.4,56,0.00,,BKN047,0.00,VWS V14.01,2013-10-16 02:29:00,
2013-10-15 21:30:00,50.9,35.8,29.90,West,270,4.8,5.2,56,0.00,,BKN047,0.00,VWS V14.01,2013-10-16 02:30:00,
2013-10-15 21:34:00,50.9,35.8,29.90,WNW,292,3.4,3.4,56,0.00,,BKN047,0.00,VWS V14.01,2013-10-16 02:34:00,
2013-10-15 21:36:00,50.9,35.8,29.90,WSW,248,0.0,4.4,56,0.00,,BKN047,0.00,VWS V14.01,2013-10-16 02:36:00,
2013-10-15 21:37:00,50.9,35.8,29.90,WSW,248,0.0,0.0,56,0.00,,BKN047,0.00,VWS V14.01,2013-10-16 02:37:00,
2013-10-15 21:39:00,50.9,35.8,29.90,West,270,4.0,4.0,56,0.00,,BKN047,0.00,VWS V14.01,2013-10-16 02:39:00,
2013-10-15 21:40:00,50.9,35.8,29.90,West,270,0.0,4.0,56,0.00,,CLR,0.00,VWS V14.01,2013-10-16 02:40:00,
2013-10-15 21:41:00,50.9,35.8,29.90,West,270,6.2,6.2,56,0.00,,CLR,0.00,VWS V14.01,2013-10-16 02:41:00,
2013-10-15 21:42:00,50.9,35.8,29.90,West,270,0.0,6.2,56,0.00,,CLR,0.00,VWS V14.01,2013-10-16 02:42:00,
2013-10-15 21:43:00,50.9,35.8,29.90,West,270,0.0,0.0,56,0.00,,CLR,0.00,VWS V14.01,2013-10-16 02:43:00,
2013-10-15 21:44:00,50.9,35.8,29.90,West,270,2.2,2.2,56,0.00,,CLR,0.00,VWS V14.01,2013-10-16 02:44:00,
2013-10-15 21:46:00,50.9,35.8,29.90,SW,225,1.6,4.0,56,0.00,,CLR,0.00,VWS V14.01,2013-10-16 02:46:00,
2013-10-15 21:48:00,50.9,35.8,29.90,WSW,248,6.2,6.2,56,0.00,,CLR,0.00,VWS V14.01,2013-10-16 02:48:00,
2013-10-15 21:50:00,50.9,35.8,29.90,WSW,248,2.2,6.2,56,0.00,,CLR,0.00,VWS V14.01,2013-10-16 02:50:00,
2013-10-15 21:54:00,51.0,35.4,29.90,West,270,3.0,3.0,55,0.00,,CLR,0.00,VWS V14.01,2013-10-16 02:54:00,
2013-10-15 21:55:00,51.2,36.1,29.90,West,270,4.4,4.4,56,0.00,,CLR,0.00,VWS V14.01,2013-10-16 02:55:00,
2013-10-15 21:57:00,51.2,36.1,29.90,SE,135,0.0,1.2,56,0.00,,CLR,0.00,VWS V14.01,2013-10-16 02:57:00,
2013-10-15 21:58:00,51.4,36.2,29.90,West,270,0.0,1.2,56,0.00,,CLR,0.00,VWS V14.01,2013-10-16 02:58:00,
2013-10-15 21:59:00,51.4,35.8,29.90,West,270,2.2,2.2,55,0.00,,CLR,0.00,VWS V14.01,2013-10-16 02:59:00,
2013-10-15 22:01:00,51.4,35.8,29.90,West,270,0.0,43.8,55,0.00,,CLR,0.00,VWS V14.01,2013-10-16 03:01:00,
2013-10-15 22:02:00,51.4,35.8,29.90,West,270,0.0,43.8,55,0.00,,CLR,0.00,VWS V14.01,2013-10-16 03:02:00,
2013-10-15 22:03:00,51.2,35.6,29.90,West,270,8.4,8.4,55,0.00,,CLR,0.00,VWS V14.01,2013-10-16 03:03:00,
2013-10-15 22:04:00,51.4,35.8,29.90,West,270,5.2,8.4,55,0.00,,CLR,0.00,VWS V14.01,2013-10-16 03:04:00,
2013-10-15 22:09:00,51.6,36.0,29.90,West,270,5.2,5.2,55,0.00,,CLR,0.00,VWS V14.01,2013-10-16 03:09:00,
2013-10-15 22:10:00,51.4,35.8,29.90,West,270,1.2,5.2,55,0.00,,CLR,0.00,VWS V14.01,2013-10-16 03:10:00,
2013-10-15 22:11:00,51.6,36.0,29.90,SW,225,0.0,1.2,55,0.00,,CLR,0.00,VWS V14.01,2013-10-16 03:11:00,
2013-10-15 22:12:00,51.4,35.8,29.90,West,270,4.4,4.4,55,0.00,,CLR,0.00,VWS V14.01,2013-10-16 03:12:00,
2013-10-15 22:16:00,51.6,36.0,29.90,West,270,2.2,4.8,55,0.00,,CLR,0.00,VWS V14.01,2013-10-16 03:16:00,
2013-10-15 22:17:00,51.6,36.0,29.90,West,270,0.0,2.2,55,0.00,,CLR,0.00,VWS V14.01,2013-10-16 03:17:00,
2013-10-15 22:18:00,51.6,36.0,29.90,West,270,3.0,3.0,55,0.00,,CLR,0.00,VWS V14.01,2013-10-16 03:18:00,
2013-10-15 22:22:00,51.8,36.2,29.90,West,270,4.8,4.8,55,0.00,,CLR,0.00,VWS V14.01,2013-10-16 03:22:00,
2013-10-15 22:24:00,51.9,36.3,29.90,West,270,3.0,4.8,55,0.00,,CLR,0.00,VWS V14.01,2013-10-16 03:24:00,
2013-10-15 22:25:00,51.8,36.2,29.90,West,270,4.0,4.0,55,0.00,,CLR,0.00,VWS V14.01,2013-10-16 03:25:00,
2013-10-15 22:26:00,51.8,36.2,29.90,WSW,248,0.0,4.0,55,0.00,,CLR,0.00,VWS V14.01,2013-10-16 03:26:00,
2013-10-15 22:28:00,51.9,36.3,29.90,West,270,4.4,4.4,55,0.00,,CLR,0.00,VWS V14.01,2013-10-16 03:28:00,
2013-10-15 22:29:00,51.8,36.2,29.90,West,270,1.6,4.4,55,0.00,,CLR,0.00,VWS V14.01,2013-10-16 03:29:00,
2013-10-15 22:31:00,51.9,36.3,29.90,West,270,3.0,3.0,55,0.00,,CLR,0.00,VWS V14.01,2013-10-16 03:31:00,
2013-10-15 22:32:00,51.9,36.3,29.90,West,270,8.0,8.0,55,0.00,,CLR,0.00,VWS V14.01,2013-10-16 03:32:00,
2013-10-15 22:34:00,51.8,36.2,29.90,West,270,2.2,8.0,55,0.00,,CLR,0.00,VWS V14.01,2013-10-16 03:34:00,
2013-10-15 22:36:00,51.9,36.3,29.90,West,270,4.4,4.4,55,0.00,,CLR,0.00,VWS V14.01,2013-10-16 03:36:00,
2013-10-15 22:37:00,51.9,36.3,29.90,WSW,248,2.2,4.4,55,0.00,,CLR,0.00,VWS V14.01,2013-10-16 03:37:00,
2013-10-15 22:38:00,51.9,36.3,29.90,West,270,0.0,0.0,55,0.00,,CLR,0.00,VWS V14.01,2013-10-16 03:38:00,
2013-10-15 22:41:00,51.9,36.3,29.90,West,270,4.8,4.8,55,0.00,,CLR,0.00,VWS V14.01,2013-10-16 03:41:00,
2013-10-15 22:42:00,51.9,36.3,29.90,West,270,11.0,11.0,55,0.00,,CLR,0.00,VWS V14.01,2013-10-16 03:42:00,
2013-10-15 22:44:00,51.9,36.3,29.90,West,270,3.4,11.0,55,0.00,,CLR,0.00,VWS V14.01,2013-10-16 03:44:00,
2013-10-15 22:46:00,51.9,36.3,29.90,WSW,248,7.6,7.6,55,0.00,,CLR,0.00,VWS V14.01,2013-10-16 03:46:00,
2013-10-15 22:47:00,51.9,36.3,29.90,WNW,292,8.8,8.8,55,0.00,,CLR,0.00,VWS V14.01,2013-10-16 03:47:00,
2013-10-15 22:49:00,51.9,36.3,29.90,West,270,4.4,5.8,55,0.00,,CLR,0.00,VWS V14.01,2013-10-16 03:49:00,
2013-10-15 22:51:00,51.9,36.3,29.90,West,270,8.8,8.8,55,0.00,,CLR,0.00,VWS V14.01,2013-10-16 03:51:00,
2013-10-15 22:52:00,51.9,36.3,29.90,West,270,3.4,8.8,55,0.00,,CLR,0.00,VWS V14.01,2013-10-16 03:52:00,
2013-10-15 22:53:00,51.9,36.3,29.90,West,270,7.0,7.0,55,0.00,,CLR,0.00,VWS V14.01,2013-10-16 03:53:00,
2013-10-15 22:58:00,51.9,36.3,29.89,WSW,248,3.0,3.0,55,0.00,,CLR,0.00,VWS V14.01,2013-10-16 03:58:00,
2013-10-15 22:59:00,51.9,36.3,29.90,WSW,248,3.4,3.4,55,0.00,,CLR,0.00,VWS V14.01,2013-10-16 03:59:00,
2013-10-15 23:00:00,51.9,36.3,29.89,West,270,3.0,3.4,55,0.00,,CLR,0.00,VWS V14.01,2013-10-16 04:00:00,
2013-10-15 23:01:00,51.9,36.3,29.90,WNW,292,0.0,0.0,55,0.00,,CLR,0.00,VWS V14.01,2013-10-16 04:01:00,
2013-10-15 23:02:00,51.9,36.3,29.90,WSW,248,7.0,7.0,55,0.00,,CLR,0.00,VWS V14.01,2013-10-16 04:02:00,
2013-10-15 23:05:00,51.9,36.3,29.89,WSW,248,3.0,3.0,55,0.00,,CLR,0.00,VWS V14.01,2013-10-16 04:05:00,
2013-10-15 23:06:00,51.9,36.3,29.89,West,270,1.6,3.0,55,0.00,,CLR,0.00,VWS V14.01,2013-10-16 04:06:00,
2013-10-15 23:07:00,51.9,36.3,29.89,SSW,202,7.0,7.0,55,0.00,,CLR,0.00,VWS V14.01,2013-10-16 04:07:00,
2013-10-15 23:08:00,51.9,36.7,29.89,West,270,4.4,7.0,56,0.00,,CLR,0.00,VWS V14.01,2013-10-16 04:08:00,
2013-10-15 23:09:00,51.9,36.7,29.89,West,270,4.0,4.0,56,0.00,,CLR,0.00,VWS V14.01,2013-10-16 04:09:00,
2013-10-15 23:10:00,51.9,36.7,29.89,West,270,3.4,4.0,56,0.00,,CLR,0.00,VWS V14.01,2013-10-16 04:10:00,
2013-10-15 23:11:00,51.9,36.7,29.89,West,270,3.4,3.4,56,0.00,,CLR,0.00,VWS V14.01,2013-10-16 04:11:00,
2013-10-15 23:12:00,51.9,36.7,29.89,West,270,4.0,4.0,56,0.00,,CLR,0.00,VWS V14.01,2013-10-16 04:12:00,
2013-10-15 23:14:00,51.8,36.6,29.89,West,270,3.0,4.8,56,0.00,,CLR,0.00,VWS V14.01,2013-10-16 04:14:00,
2013-10-15 23:16:00,51.9,36.7,29.89,WSW,248,0.8,3.0,56,0.00,,CLR,0.00,VWS V14.01,2013-10-16 04:16:00,
2013-10-15 23:19:00,51.8,36.6,29.89,West,270,3.0,3.0,56,0.00,,CLR,0.00,VWS V14.01,2013-10-16 04:19:00,
2013-10-15 23:20:00,51.8,36.6,29.89,WSW,248,0.0,10.2,56,0.00,,CLR,0.00,VWS V14.01,2013-10-16 04:20:00,
2013-10-15 23:21:00,51.8,36.6,29.89,WSW,248,0.0,0.0,56,0.00,,CLR,0.00,VWS V14.01,2013-10-16 04:21:00,
2013-10-15 23:22:00,51.8,36.6,29.89,WNW,292,7.0,7.0,56,0.00,,CLR,0.00,VWS V14.01,2013-10-16 04:22:00,
2013-10-15 23:24:00,51.6,36.4,29.89,West,270,3.4,7.0,56,0.00,,CLR,0.00,VWS V14.01,2013-10-16 04:24:00,
2013-10-15 23:26:00,51.8,36.6,29.89,West,270,4.4,4.4,56,0.00,,CLR,0.00,VWS V14.01,2013-10-16 04:26:00,
2013-10-15 23:27:00,51.8,36.6,29.90,West,270,5.2,5.2,56,0.00,,CLR,0.00,VWS V14.01,2013-10-16 04:27:00,
2013-10-15 23:28:00,51.8,36.6,29.89,WSW,248,0.0,5.2,56,0.00,,CLR,0.00,VWS V14.01,2013-10-16 04:28:00,
2013-10-15 23:30:00,51.8,36.6,29.89,WSW,248,0.0,4.8,56,0.00,,CLR,0.00,VWS V14.01,2013-10-16 04:30:00,
2013-10-15 23:31:00,51.8,36.6,29.89,WSW,248,0.0,0.0,56,0.00,,CLR,0.00,VWS V14.01,2013-10-16 04:31:00,
2013-10-15 23:33:00,51.8,36.6,29.89,WSW,248,4.0,4.8,56,0.00,,CLR,0.00,VWS V14.01,2013-10-16 04:33:00,
2013-10-15 23:34:00,51.6,36.4,29.89,SW,225,7.6,7.6,56,0.00,,CLR,0.00,VWS V14.01,2013-10-16 04:34:00,
2013-10-15 23:36:00,51.8,36.6,29.90,West,270,4.8,7.6,56,0.00,,CLR,0.00,VWS V14.01,2013-10-16 04:36:00,
2013-10-15 23:38:00,51.8,36.6,29.89,West,270,2.2,2.2,56,0.00,,CLR,0.00,VWS V14.01,2013-10-16 04:38:00,
2013-10-15 23:41:00,51.6,36.4,29.90,West,270,3.0,8.4,56,0.00,,BKN032,0.00,VWS V14.01,2013-10-16 04:41:00,
2013-10-15 23:42:00,51.6,36.4,29.89,West,270,7.0,8.4,56,0.00,,BKN032,0.00,VWS V14.01,2013-10-16 04:42:00,
2013-10-15 23:43:00,51.6,36.4,29.90,WSW,248,5.2,7.0,56,0.00,,BKN032,0.00,VWS V14.01,2013-10-16 04:43:00,
2013-10-15 23:44:00,51.6,36.9,29.89,NNW,338,28.0,28.0,57,0.00,,BKN032,0.00,VWS V14.01,2013-10-16 04:44:00,
2013-10-15 23:46:00,51.6,36.9,29.89,West,270,8.0,28.0,57,0.00,,BKN032,0.00,VWS V14.01,2013-10-16 04:46:00,
2013-10-15 23:47:00,51.6,36.9,29.90,WNW,292,2.6,8.0,57,0.00,,BKN032,0.00,VWS V14.01,2013-10-16 04:47:00,
2013-10-15 23:48:00,51.6,36.9,29.90,West,270,4.4,4.4,57,0.00,,BKN032,0.00,VWS V14.01,2013-10-16 04:48:00,
2013-10-15 23:50:00,51.6,36.9,29.90,West,270,4.8,4.8,57,0.00,,BKN032,0.00,VWS V14.01,2013-10-16 04:50:00,
2013-10-15 23:52:00,51.4,36.7,29.90,NNW,338,28.0,28.0,57,0.00,,BKN032,0.00,VWS V14.01,2013-10-16 04:52:00,
2013-10-15 23:54:00,51.4,36.7,29.89,West,270,4.8,28.0,57,0.00,,BKN032,0.00,VWS V14.01,2013-10-16 04:54:00,
2013-10-15 23:55:00,51.4,36.7,29.89,West,270,2.2,4.8,57,0.00,,BKN032,0.00,VWS V14.01,2013-10-16 04:55:00,
2013-10-15 23:56:00,51.4,36.7,29.89,West,270,5.2,5.2,57,0.00,,BKN032,0.00,VWS V14.01,2013-10-16 04:56:00,
2013-10-15 23:58:00,51.4,36.7,29.89,West,270,1.6,1.6,57,0.00,,BKN032,0.00,VWS V14.01,2013-10-16 04:58:00,